Location Data

ID User Id Email Activity Type Accuracy Altitude Ellipsoidal Heading Latitude Longitude Speed Timestamp Created At
799688 AgVPjwh4gNY8gjsSZSI8kPEzDsQ2 steve@greenleaf-tdg.com unknown 4.80 103 152 43 53.81553708 -1.64285286 0.7800 2024-03-02T20:06:36.000Z 2024-03-02 20:06:36
799687 AgVPjwh4gNY8gjsSZSI8kPEzDsQ2 steve@greenleaf-tdg.com unknown 4.80 108 158 224 53.81480515 -1.64344806 11.2300 2024-03-02T20:04:58.000Z 2024-03-02 20:04:58
799686 AgVPjwh4gNY8gjsSZSI8kPEzDsQ2 steve@greenleaf-tdg.com unknown 4.80 108 158 224 53.81487686 -1.64333405 12.2400 2024-03-02T20:04:57.055Z 2024-03-02 20:04:57
799685 AgVPjwh4gNY8gjsSZSI8kPEzDsQ2 steve@greenleaf-tdg.com unknown 4.80 105 155 233 53.81859079 -1.63633666 15.4700 2024-03-02T20:03:40.000Z 2024-03-02 20:03:40
799684 AgVPjwh4gNY8gjsSZSI8kPEzDsQ2 steve@greenleaf-tdg.com unknown 4.80 87 136 262 53.82049449 -1.62441137 15.3600 2024-03-02T20:02:47.000Z 2024-03-02 20:02:47
799683 AgVPjwh4gNY8gjsSZSI8kPEzDsQ2 steve@greenleaf-tdg.com unknown 4.80 55 104 311 53.81776667 -1.61311533 16.9500 2024-03-02T20:01:53.000Z 2024-03-02 20:01:53
799682 AgVPjwh4gNY8gjsSZSI8kPEzDsQ2 steve@greenleaf-tdg.com unknown 4.80 35 85 354 53.81576884 -1.60450344 8.1800 2024-03-02T20:00:25.000Z 2024-03-02 20:00:25
799681 AgVPjwh4gNY8gjsSZSI8kPEzDsQ2 steve@greenleaf-tdg.com unknown 4.80 37 86 277 53.81512238 -1.60337397 3.1200 2024-03-02T19:59:57.037Z 2024-03-02 19:59:57
799680 AgVPjwh4gNY8gjsSZSI8kPEzDsQ2 steve@greenleaf-tdg.com unknown 4.80 44 93 332 53.81352220 -1.59972297 11.2900 2024-03-02T19:59:08.000Z 2024-03-02 19:59:08
799679 AgVPjwh4gNY8gjsSZSI8kPEzDsQ2 steve@greenleaf-tdg.com unknown 4.80 39 88 301 53.80987702 -1.59285247 10.0700 2024-03-02T19:58:12.000Z 2024-03-02 19:58:12
799678 AgVPjwh4gNY8gjsSZSI8kPEzDsQ2 steve@greenleaf-tdg.com unknown 4.80 34 83 300 53.80711351 -1.58501745 11.3900 2024-03-02T19:57:15.000Z 2024-03-02 19:57:15
799677 AgVPjwh4gNY8gjsSZSI8kPEzDsQ2 steve@greenleaf-tdg.com unknown 4.80 34 83 299 53.80696348 -1.58456517 11.0500 2024-03-02T19:57:12.000Z 2024-03-02 19:57:12
799676 AgVPjwh4gNY8gjsSZSI8kPEzDsQ2 steve@greenleaf-tdg.com unknown 4.80 31 80 299 53.80451985 -1.57633014 9.7000 2024-03-02T19:55:47.000Z 2024-03-02 19:55:47
799675 AgVPjwh4gNY8gjsSZSI8kPEzDsQ2 steve@greenleaf-tdg.com unknown 4.80 31 80 305 53.80408325 -1.57509374 0.0000 2024-03-02T19:54:57.000Z 2024-03-02 19:54:57
799674 AgVPjwh4gNY8gjsSZSI8kPEzDsQ2 steve@greenleaf-tdg.com unknown 4.80 31 80 305 53.80408325 -1.57509374 0.0000 2024-03-02T19:54:56.050Z 2024-03-02 19:54:56
799673 AgVPjwh4gNY8gjsSZSI8kPEzDsQ2 steve@greenleaf-tdg.com unknown 4.80 31 80 307 53.80213241 -1.57086954 15.5100 2024-03-02T19:53:47.000Z 2024-03-02 19:53:47
799672 AgVPjwh4gNY8gjsSZSI8kPEzDsQ2 steve@greenleaf-tdg.com unknown 4.80 29 78 297 53.79901069 -1.56334705 11.7300 2024-03-02T19:53:01.001Z 2024-03-02 19:53:01
799671 AgVPjwh4gNY8gjsSZSI8kPEzDsQ2 steve@greenleaf-tdg.com unknown 4.80 32 80 280 53.79666517 -1.55500050 7.7400 2024-03-02T19:51:45.001Z 2024-03-02 19:51:45
799670 AgVPjwh4gNY8gjsSZSI8kPEzDsQ2 steve@greenleaf-tdg.com unknown 4.80 32 81 299 53.79276614 -1.55809109 10.3300 2024-03-02T19:49:56.031Z 2024-03-02 19:49:56
799669 AgVPjwh4gNY8gjsSZSI8kPEzDsQ2 steve@greenleaf-tdg.com unknown 4.80 28 77 297 53.79191520 -1.55162874 7.6600 2024-03-02T19:49:11.000Z 2024-03-02 19:49:11
799668 AgVPjwh4gNY8gjsSZSI8kPEzDsQ2 steve@greenleaf-tdg.com still 35.00 20 69 -1 53.79354950 -1.54898926 -1.0000 2024-03-02T17:53:25.547Z 2024-03-02 17:53:28
799667 AgVPjwh4gNY8gjsSZSI8kPEzDsQ2 steve@greenleaf-tdg.com on_foot 61.00 20 69 -1 53.79337878 -1.55098065 -1.0000 2024-03-02T17:45:02.313Z 2024-03-02 17:45:02
799666 AgVPjwh4gNY8gjsSZSI8kPEzDsQ2 steve@greenleaf-tdg.com in_vehicle 137.70 20 69 -1 53.79341276 -1.55051730 -1.0000 2024-03-02T17:43:36.131Z 2024-03-02 17:43:39
799665 AgVPjwh4gNY8gjsSZSI8kPEzDsQ2 steve@greenleaf-tdg.com in_vehicle 14.20 27 76 41 53.79343919 -1.55109333 0.0000 2024-03-02T17:42:03.000Z 2024-03-02 17:42:04
799664 AgVPjwh4gNY8gjsSZSI8kPEzDsQ2 steve@greenleaf-tdg.com in_vehicle 14.30 26 74 2 53.79266381 -1.55101920 4.9300 2024-03-02T17:40:58.000Z 2024-03-02 17:40:58
799663 AgVPjwh4gNY8gjsSZSI8kPEzDsQ2 steve@greenleaf-tdg.com in_vehicle 14.20 24 73 23 53.78774084 -1.54727477 9.8900 2024-03-02T17:39:00.000Z 2024-03-02 17:39:00
799662 AgVPjwh4gNY8gjsSZSI8kPEzDsQ2 steve@greenleaf-tdg.com in_vehicle 14.20 28 77 329 53.78593932 -1.54788984 1.2500 2024-03-02T17:38:37.000Z 2024-03-02 17:38:37
799661 AgVPjwh4gNY8gjsSZSI8kPEzDsQ2 steve@greenleaf-tdg.com in_vehicle 14.20 28 77 329 53.78592691 -1.54788031 0.1300 2024-03-02T17:38:36.041Z 2024-03-02 17:38:36
799660 AgVPjwh4gNY8gjsSZSI8kPEzDsQ2 steve@greenleaf-tdg.com in_vehicle 14.30 26 74 320 53.78223800 -1.54072776 17.5300 2024-03-02T17:37:08.000Z 2024-03-02 17:37:08
799659 AgVPjwh4gNY8gjsSZSI8kPEzDsQ2 steve@greenleaf-tdg.com in_vehicle 14.20 35 84 351 53.77319171 -1.54022933 17.5200 2024-03-02T17:36:06.000Z 2024-03-02 17:36:06
799658 AgVPjwh4gNY8gjsSZSI8kPEzDsQ2 steve@greenleaf-tdg.com in_vehicle 14.30 40 88 278 53.77022273 -1.52587494 17.5200 2024-03-02T17:35:03.000Z 2024-03-02 17:35:03
799657 AgVPjwh4gNY8gjsSZSI8kPEzDsQ2 steve@greenleaf-tdg.com in_vehicle 14.20 43 91 358 53.76465365 -1.51396016 22.0500 2024-03-02T17:34:03.000Z 2024-03-02 17:34:03
799656 AgVPjwh4gNY8gjsSZSI8kPEzDsQ2 steve@greenleaf-tdg.com in_vehicle 14.20 63 111 360 53.75880139 -1.51419112 29.8500 2024-03-02T17:33:36.034Z 2024-03-02 17:33:36
799655 AgVPjwh4gNY8gjsSZSI8kPEzDsQ2 steve@greenleaf-tdg.com in_vehicle 14.20 85 133 21 53.75206085 -1.51625636 30.5000 2024-03-02T17:33:11.000Z 2024-03-02 17:33:11
799654 AgVPjwh4gNY8gjsSZSI8kPEzDsQ2 steve@greenleaf-tdg.com in_vehicle 4.70 72 120 340 53.73939026 -1.51308096 28.8300 2024-03-02T17:32:21.000Z 2024-03-02 17:32:21
799653 AgVPjwh4gNY8gjsSZSI8kPEzDsQ2 steve@greenleaf-tdg.com in_vehicle 4.70 94 142 35 53.72665236 -1.51530477 29.0900 2024-03-02T17:31:29.000Z 2024-03-02 17:31:29
799652 AgVPjwh4gNY8gjsSZSI8kPEzDsQ2 steve@greenleaf-tdg.com in_vehicle 4.60 97 146 49 53.71916205 -1.52863050 24.3800 2024-03-02T17:30:45.000Z 2024-03-02 17:30:45
799651 AgVPjwh4gNY8gjsSZSI8kPEzDsQ2 steve@greenleaf-tdg.com in_vehicle 4.70 86 134 297 53.70965582 -1.52788880 22.5600 2024-03-02T17:28:36.023Z 2024-03-02 17:28:36
799650 AgVPjwh4gNY8gjsSZSI8kPEzDsQ2 steve@greenleaf-tdg.com in_vehicle 4.70 86 135 282 53.70885589 -1.52298651 16.8500 2024-03-02T17:28:19.000Z 2024-03-02 17:28:19
799649 AgVPjwh4gNY8gjsSZSI8kPEzDsQ2 steve@greenleaf-tdg.com in_vehicle 4.60 73 121 314 53.70479191 -1.50944364 21.5200 2024-03-02T17:27:16.000Z 2024-03-02 17:27:16
799648 AgVPjwh4gNY8gjsSZSI8kPEzDsQ2 steve@greenleaf-tdg.com in_vehicle 4.70 64 112 117 53.69946208 -1.50678191 10.4000 2024-03-02T17:26:30.000Z 2024-03-02 17:26:30
799647 AgVPjwh4gNY8gjsSZSI8kPEzDsQ2 steve@greenleaf-tdg.com in_vehicle 11.50 62 111 206 53.70007926 -1.50972652 0.0000 2024-03-02T17:25:52.000Z 2024-03-02 17:25:52
799646 AgVPjwh4gNY8gjsSZSI8kPEzDsQ2 steve@greenleaf-tdg.com in_vehicle 4.70 77 126 137 53.70468182 -1.50903536 24.3700 2024-03-02T17:23:36.000Z 2024-03-02 17:23:36
799645 AgVPjwh4gNY8gjsSZSI8kPEzDsQ2 steve@greenleaf-tdg.com in_vehicle 4.70 78 126 137 53.70484240 -1.50928598 24.4300 2024-03-02T17:23:35.038Z 2024-03-02 17:23:35
799644 AgVPjwh4gNY8gjsSZSI8kPEzDsQ2 steve@greenleaf-tdg.com in_vehicle 4.70 86 134 103 53.70933001 -1.52579175 22.8000 2024-03-02T17:22:33.000Z 2024-03-02 17:22:33
799643 AgVPjwh4gNY8gjsSZSI8kPEzDsQ2 steve@greenleaf-tdg.com in_vehicle 4.70 96 144 54 53.71479238 -1.53818255 21.1000 2024-03-02T17:20:34.000Z 2024-03-02 17:20:34
799642 AgVPjwh4gNY8gjsSZSI8kPEzDsQ2 steve@greenleaf-tdg.com in_vehicle 4.70 80 129 25 53.70538857 -1.55272746 30.4900 2024-03-02T17:19:41.000Z 2024-03-02 17:19:41
799641 AgVPjwh4gNY8gjsSZSI8kPEzDsQ2 steve@greenleaf-tdg.com in_vehicle 4.70 67 116 353 53.69285439 -1.55747730 30.3800 2024-03-02T17:18:53.000Z 2024-03-02 17:18:53
799640 AgVPjwh4gNY8gjsSZSI8kPEzDsQ2 steve@greenleaf-tdg.com still 4.70 85 133 352 53.68773168 -1.55621197 30.4700 2024-03-02T17:18:34.039Z 2024-03-02 17:18:34
799639 AgVPjwh4gNY8gjsSZSI8kPEzDsQ2 steve@greenleaf-tdg.com in_vehicle 4.70 84 133 352 53.68037230 -1.55437409 30.7300 2024-03-02T17:18:07.000Z 2024-03-02 17:18:07
799638 AgVPjwh4gNY8gjsSZSI8kPEzDsQ2 steve@greenleaf-tdg.com still 4.70 47 96 311 53.66902805 -1.54484562 29.8500 2024-03-02T17:17:20.000Z 2024-03-02 17:17:20
799637 AgVPjwh4gNY8gjsSZSI8kPEzDsQ2 steve@greenleaf-tdg.com in_vehicle 4.70 39 88 326 53.65907713 -1.53148956 30.1700 2024-03-02T17:16:32.000Z 2024-03-02 17:16:32
799636 AgVPjwh4gNY8gjsSZSI8kPEzDsQ2 steve@greenleaf-tdg.com in_vehicle 4.70 50 99 22 53.64648558 -1.53092434 30.2900 2024-03-02T17:15:43.000Z 2024-03-02 17:15:43
799635 AgVPjwh4gNY8gjsSZSI8kPEzDsQ2 steve@greenleaf-tdg.com in_vehicle 4.70 70 119 5 53.63502288 -1.54009255 30.1000 2024-03-02T17:14:56.000Z 2024-03-02 17:14:56
799634 AgVPjwh4gNY8gjsSZSI8kPEzDsQ2 steve@greenleaf-tdg.com in_vehicle 4.70 102 151 33 53.62287845 -1.54694083 30.8800 2024-03-02T17:14:08.000Z 2024-03-02 17:14:08
799633 AgVPjwh4gNY8gjsSZSI8kPEzDsQ2 steve@greenleaf-tdg.com in_vehicle 4.70 102 151 6 53.61414290 -1.55240053 30.5200 2024-03-02T17:13:34.036Z 2024-03-02 17:13:34
799632 AgVPjwh4gNY8gjsSZSI8kPEzDsQ2 steve@greenleaf-tdg.com in_vehicle 4.70 90 139 359 53.61065983 -1.55266904 29.4000 2024-03-02T17:13:21.000Z 2024-03-02 17:13:21
799631 AgVPjwh4gNY8gjsSZSI8kPEzDsQ2 steve@greenleaf-tdg.com in_vehicle 4.70 75 124 326 53.59836656 -1.54722467 30.7500 2024-03-02T17:12:34.000Z 2024-03-02 17:12:34
799630 AgVPjwh4gNY8gjsSZSI8kPEzDsQ2 steve@greenleaf-tdg.com in_vehicle 4.70 69 118 349 53.58739971 -1.53612956 30.7900 2024-03-02T17:11:47.000Z 2024-03-02 17:11:47
799629 AgVPjwh4gNY8gjsSZSI8kPEzDsQ2 steve@greenleaf-tdg.com still 4.70 71 119 13 53.57501171 -1.54072127 28.8300 2024-03-02T17:10:59.000Z 2024-03-02 17:10:59
799628 AgVPjwh4gNY8gjsSZSI8kPEzDsQ2 steve@greenleaf-tdg.com in_vehicle 4.70 109 158 332 53.56253532 -1.53748799 30.3000 2024-03-02T17:10:10.000Z 2024-03-02 17:10:10
799627 AgVPjwh4gNY8gjsSZSI8kPEzDsQ2 steve@greenleaf-tdg.com in_vehicle 4.70 149 198 303 53.55328033 -1.52307002 30.4900 2024-03-02T17:09:23.000Z 2024-03-02 17:09:23
799626 AgVPjwh4gNY8gjsSZSI8kPEzDsQ2 steve@greenleaf-tdg.com in_vehicle 4.70 110 159 334 53.54285461 -1.51092332 30.5000 2024-03-02T17:08:36.000Z 2024-03-02 17:08:36
799625 AgVPjwh4gNY8gjsSZSI8kPEzDsQ2 steve@greenleaf-tdg.com in_vehicle 4.70 107 156 334 53.54211801 -1.51031458 30.3300 2024-03-02T17:08:33.036Z 2024-03-02 17:08:33
799624 AgVPjwh4gNY8gjsSZSI8kPEzDsQ2 steve@greenleaf-tdg.com still 4.70 71 119 319 53.53196726 -1.49951909 30.7400 2024-03-02T17:07:49.000Z 2024-03-02 17:07:49
799623 AgVPjwh4gNY8gjsSZSI8kPEzDsQ2 steve@greenleaf-tdg.com in_vehicle 4.70 76 124 351 53.52090992 -1.48874413 29.3800 2024-03-02T17:07:02.000Z 2024-03-02 17:07:02
799622 AgVPjwh4gNY8gjsSZSI8kPEzDsQ2 steve@greenleaf-tdg.com in_vehicle 4.70 96 145 344 53.50994616 -1.49057372 26.9200 2024-03-02T17:06:16.000Z 2024-03-02 17:06:16
799621 AgVPjwh4gNY8gjsSZSI8kPEzDsQ2 steve@greenleaf-tdg.com in_vehicle 4.70 132 180 321 53.49902964 -1.47993308 30.7500 2024-03-02T17:05:26.000Z 2024-03-02 17:05:26
799620 AgVPjwh4gNY8gjsSZSI8kPEzDsQ2 steve@greenleaf-tdg.com still 4.70 138 186 348 53.48820451 -1.46891334 30.7700 2024-03-02T17:04:39.000Z 2024-03-02 17:04:39
799619 AgVPjwh4gNY8gjsSZSI8kPEzDsQ2 steve@greenleaf-tdg.com in_vehicle 4.70 136 185 328 53.47661337 -1.46040974 30.7500 2024-03-02T17:03:53.000Z 2024-03-02 17:03:53
799618 AgVPjwh4gNY8gjsSZSI8kPEzDsQ2 steve@greenleaf-tdg.com still 4.70 134 182 335 53.47151094 -1.45578141 30.8500 2024-03-02T17:03:32.033Z 2024-03-02 17:03:32
799617 AgVPjwh4gNY8gjsSZSI8kPEzDsQ2 steve@greenleaf-tdg.com in_vehicle 4.70 129 178 336 53.46510788 -1.45092964 24.6400 2024-03-02T17:03:05.000Z 2024-03-02 17:03:05
799616 AgVPjwh4gNY8gjsSZSI8kPEzDsQ2 steve@greenleaf-tdg.com in_vehicle 4.70 114 163 349 53.45659664 -1.44564926 21.3600 2024-03-02T17:02:18.000Z 2024-03-02 17:02:18
799615 AgVPjwh4gNY8gjsSZSI8kPEzDsQ2 steve@greenleaf-tdg.com still 4.70 86 135 341 53.44762033 -1.44366806 18.9700 2024-03-02T17:01:27.000Z 2024-03-02 17:01:27
799614 AgVPjwh4gNY8gjsSZSI8kPEzDsQ2 steve@greenleaf-tdg.com in_vehicle 4.70 61 110 322 53.43972483 -1.43617482 21.5900 2024-03-02T17:00:33.000Z 2024-03-02 17:00:33
799613 AgVPjwh4gNY8gjsSZSI8kPEzDsQ2 steve@greenleaf-tdg.com in_vehicle 4.70 51 100 312 53.43338289 -1.42550254 19.1000 2024-03-02T16:59:43.000Z 2024-03-02 16:59:43
799612 AgVPjwh4gNY8gjsSZSI8kPEzDsQ2 steve@greenleaf-tdg.com in_vehicle 4.70 56 105 335 53.42805824 -1.41712682 16.8100 2024-03-02T16:58:59.000Z 2024-03-02 16:58:59
799611 AgVPjwh4gNY8gjsSZSI8kPEzDsQ2 steve@greenleaf-tdg.com in_vehicle 4.70 57 105 323 53.42375456 -1.41334865 21.2500 2024-03-02T16:58:32.030Z 2024-03-02 16:58:32
799610 AgVPjwh4gNY8gjsSZSI8kPEzDsQ2 steve@greenleaf-tdg.com still 4.70 53 102 328 53.42041627 -1.40904802 21.4100 2024-03-02T16:58:10.000Z 2024-03-02 16:58:10
799609 AgVPjwh4gNY8gjsSZSI8kPEzDsQ2 steve@greenleaf-tdg.com in_vehicle 4.70 50 98 324 53.41272693 -1.40122735 21.3700 2024-03-02T16:57:23.000Z 2024-03-02 16:57:23
799608 AgVPjwh4gNY8gjsSZSI8kPEzDsQ2 steve@greenleaf-tdg.com in_vehicle 4.80 57 105 313 53.40563429 -1.39192597 21.2400 2024-03-02T16:56:36.000Z 2024-03-02 16:56:36
799607 AgVPjwh4gNY8gjsSZSI8kPEzDsQ2 steve@greenleaf-tdg.com in_vehicle 4.80 71 119 305 53.40037718 -1.37972749 21.3500 2024-03-02T16:55:49.000Z 2024-03-02 16:55:49
799606 AgVPjwh4gNY8gjsSZSI8kPEzDsQ2 steve@greenleaf-tdg.com still 4.80 56 104 281 53.39676006 -1.36577255 21.2300 2024-03-02T16:55:01.000Z 2024-03-02 16:55:01
799605 AgVPjwh4gNY8gjsSZSI8kPEzDsQ2 steve@greenleaf-tdg.com in_vehicle 4.70 36 85 256 53.39823117 -1.35084842 21.0700 2024-03-02T16:54:13.000Z 2024-03-02 16:54:13
799604 AgVPjwh4gNY8gjsSZSI8kPEzDsQ2 steve@greenleaf-tdg.com in_vehicle 4.80 35 83 271 53.39877915 -1.33817016 19.9100 2024-03-02T16:53:31.040Z 2024-03-02 16:53:31
799603 AgVPjwh4gNY8gjsSZSI8kPEzDsQ2 steve@greenleaf-tdg.com in_vehicle 4.80 38 87 269 53.39880682 -1.33576963 19.7700 2024-03-02T16:53:23.000Z 2024-03-02 16:53:23
799602 AgVPjwh4gNY8gjsSZSI8kPEzDsQ2 steve@greenleaf-tdg.com in_vehicle 4.80 75 124 274 53.39860451 -1.32046171 19.9600 2024-03-02T16:52:32.000Z 2024-03-02 16:52:32
799601 AgVPjwh4gNY8gjsSZSI8kPEzDsQ2 steve@greenleaf-tdg.com in_vehicle 4.80 96 144 274 53.39797328 -1.30544375 19.4400 2024-03-02T16:51:41.000Z 2024-03-02 16:51:41
799600 AgVPjwh4gNY8gjsSZSI8kPEzDsQ2 steve@greenleaf-tdg.com in_vehicle 4.80 86 134 307 53.39515036 -1.28774339 26.6600 2024-03-02T16:50:51.000Z 2024-03-02 16:50:51
799599 AgVPjwh4gNY8gjsSZSI8kPEzDsQ2 steve@greenleaf-tdg.com in_vehicle 4.70 112 161 346 53.38553792 -1.27881571 26.7100 2024-03-02T16:50:04.000Z 2024-03-02 16:50:04
799598 AgVPjwh4gNY8gjsSZSI8kPEzDsQ2 steve@greenleaf-tdg.com in_vehicle 4.70 112 161 15 53.37295534 -1.28167468 28.0200 2024-03-02T16:49:10.000Z 2024-03-02 16:49:10
799597 AgVPjwh4gNY8gjsSZSI8kPEzDsQ2 steve@greenleaf-tdg.com still 4.70 98 146 2 53.36354711 -1.28347172 25.9400 2024-03-02T16:48:31.038Z 2024-03-02 16:48:31
799596 AgVPjwh4gNY8gjsSZSI8kPEzDsQ2 steve@greenleaf-tdg.com in_vehicle 4.70 97 145 5 53.36201286 -1.28363986 22.3200 2024-03-02T16:48:24.000Z 2024-03-02 16:48:24
799595 AgVPjwh4gNY8gjsSZSI8kPEzDsQ2 steve@greenleaf-tdg.com still 4.80 90 139 14 53.35296698 -1.28633508 20.8700 2024-03-02T16:47:35.000Z 2024-03-02 16:47:35
799594 AgVPjwh4gNY8gjsSZSI8kPEzDsQ2 steve@greenleaf-tdg.com in_vehicle 4.80 99 147 9 53.34416799 -1.29025783 21.0300 2024-03-02T16:46:46.000Z 2024-03-02 16:46:46
799593 AgVPjwh4gNY8gjsSZSI8kPEzDsQ2 steve@greenleaf-tdg.com in_vehicle 4.80 102 151 329 53.33517364 -1.28740919 20.9800 2024-03-02T16:45:56.000Z 2024-03-02 16:45:56
799592 AgVPjwh4gNY8gjsSZSI8kPEzDsQ2 steve@greenleaf-tdg.com in_vehicle 4.80 108 156 349 53.32666403 -1.28189134 20.7500 2024-03-02T16:45:07.000Z 2024-03-02 16:45:07
799591 AgVPjwh4gNY8gjsSZSI8kPEzDsQ2 steve@greenleaf-tdg.com still 4.80 123 171 9 53.31756808 -1.28161833 20.7700 2024-03-02T16:44:18.000Z 2024-03-02 16:44:18
799590 AgVPjwh4gNY8gjsSZSI8kPEzDsQ2 steve@greenleaf-tdg.com in_vehicle 4.80 135 184 16 53.30874045 -1.28444781 20.6300 2024-03-02T16:43:30.000Z 2024-03-02 16:43:30
799589 AgVPjwh4gNY8gjsSZSI8kPEzDsQ2 steve@greenleaf-tdg.com in_vehicle 4.80 127 176 20 53.30035572 -1.29046756 20.6700 2024-03-02T16:42:41.000Z 2024-03-02 16:42:41
799588 AgVPjwh4gNY8gjsSZSI8kPEzDsQ2 steve@greenleaf-tdg.com in_vehicle 4.70 134 183 13 53.29154685 -1.29427779 18.7500 2024-03-02T16:41:51.000Z 2024-03-02 16:41:51
799587 AgVPjwh4gNY8gjsSZSI8kPEzDsQ2 steve@greenleaf-tdg.com in_vehicle 4.70 140 189 327 53.28638381 -1.29721132 11.1000 2024-03-02T16:41:17.000Z 2024-03-02 16:41:17
799586 AgVPjwh4gNY8gjsSZSI8kPEzDsQ2 steve@greenleaf-tdg.com in_vehicle 4.80 130 178 323 53.28442302 -1.28880616 11.3400 2024-03-02T16:40:25.000Z 2024-03-02 16:40:25
799585 AgVPjwh4gNY8gjsSZSI8kPEzDsQ2 steve@greenleaf-tdg.com in_vehicle 4.80 134 183 268 53.28272227 -1.27705376 15.9100 2024-03-02T16:39:09.000Z 2024-03-02 16:39:09
799584 AgVPjwh4gNY8gjsSZSI8kPEzDsQ2 steve@greenleaf-tdg.com in_vehicle 4.80 140 188 303 53.28110237 -1.27088425 9.1300 2024-03-02T16:38:29.041Z 2024-03-02 16:38:29
799583 AgVPjwh4gNY8gjsSZSI8kPEzDsQ2 steve@greenleaf-tdg.com in_vehicle 4.80 139 187 296 53.28046257 -1.26875256 11.0900 2024-03-02T16:38:04.000Z 2024-03-02 16:38:04
799582 AgVPjwh4gNY8gjsSZSI8kPEzDsQ2 steve@greenleaf-tdg.com in_vehicle 4.80 134 183 282 53.27830043 -1.25717246 12.5500 2024-03-02T16:36:39.000Z 2024-03-02 16:36:39
799581 AgVPjwh4gNY8gjsSZSI8kPEzDsQ2 steve@greenleaf-tdg.com in_vehicle 4.80 119 168 297 53.27579117 -1.24277356 18.4500 2024-03-02T16:35:15.000Z 2024-03-02 16:35:15
799580 AgVPjwh4gNY8gjsSZSI8kPEzDsQ2 steve@greenleaf-tdg.com in_vehicle 4.80 100 149 289 53.27213590 -1.22885078 18.0800 2024-03-02T16:34:24.000Z 2024-03-02 16:34:24
799579 AgVPjwh4gNY8gjsSZSI8kPEzDsQ2 steve@greenleaf-tdg.com in_vehicle 4.80 84 132 307 53.27067306 -1.21686788 16.1200 2024-03-02T16:33:33.000Z 2024-03-02 16:33:33
799578 AgVPjwh4gNY8gjsSZSI8kPEzDsQ2 steve@greenleaf-tdg.com in_vehicle 4.80 83 131 324 53.27015757 -1.21603157 15.9000 2024-03-02T16:33:28.046Z 2024-03-02 16:33:28
799577 AgVPjwh4gNY8gjsSZSI8kPEzDsQ2 steve@greenleaf-tdg.com in_vehicle 4.80 76 125 331 53.26412930 -1.21148152 12.5800 2024-03-02T16:32:37.000Z 2024-03-02 16:32:37
799576 AgVPjwh4gNY8gjsSZSI8kPEzDsQ2 steve@greenleaf-tdg.com in_vehicle 4.80 77 126 339 53.25589950 -1.20516472 21.4100 2024-03-02T16:31:31.000Z 2024-03-02 16:31:31
799575 AgVPjwh4gNY8gjsSZSI8kPEzDsQ2 steve@greenleaf-tdg.com in_vehicle 4.70 84 132 302 53.24673128 -1.19551512 26.1200 2024-03-02T16:30:34.000Z 2024-03-02 16:30:34
799574 AgVPjwh4gNY8gjsSZSI8kPEzDsQ2 steve@greenleaf-tdg.com in_vehicle 4.70 71 119 305 53.24062487 -1.18440792 21.2400 2024-03-02T16:29:46.000Z 2024-03-02 16:29:46
799573 AgVPjwh4gNY8gjsSZSI8kPEzDsQ2 steve@greenleaf-tdg.com in_vehicle 4.80 64 112 302 53.23641804 -1.17087521 20.3500 2024-03-02T16:28:50.000Z 2024-03-02 16:28:52
799572 AgVPjwh4gNY8gjsSZSI8kPEzDsQ2 steve@greenleaf-tdg.com in_vehicle 4.80 59 107 277 53.23516255 -1.16516446 18.3000 2024-03-02T16:28:28.029Z 2024-03-02 16:28:28
799571 AgVPjwh4gNY8gjsSZSI8kPEzDsQ2 steve@greenleaf-tdg.com in_vehicle 4.80 69 117 75 53.23328624 -1.15653086 16.8400 2024-03-02T16:27:01.000Z 2024-03-02 16:27:01
799570 i3vz9aaP0UfIW6tMc2pcyXZkpSA3 andrew@greenleaf-tdg.com unknown 13000.00 38 82 -1 51.53931341 -0.08545598 -1.0000 2024-02-08T14:50:08.875Z 2024-03-02 15:54:10
799569 i3vz9aaP0UfIW6tMc2pcyXZkpSA3 andrew@greenleaf-tdg.com unknown 17.80 25 72 265 51.54471917 -0.01393910 18.6200 2024-02-08T14:47:50.052Z 2024-03-02 15:54:10
799568 i3vz9aaP0UfIW6tMc2pcyXZkpSA3 andrew@greenleaf-tdg.com unknown 563.90 40 85 -1 51.54454661 -0.01310809 -1.0000 2024-02-08T14:49:13.876Z 2024-03-02 15:54:10
799567 i3vz9aaP0UfIW6tMc2pcyXZkpSA3 andrew@greenleaf-tdg.com unknown 17.80 25 72 265 51.54471917 -0.01393910 18.6200 2024-02-08T14:47:50.052Z 2024-03-02 15:54:09
799566 AgVPjwh4gNY8gjsSZSI8kPEzDsQ2 steve@greenleaf-tdg.com still 5.30 63 111 133 53.23163878 -1.15908472 0.0000 2024-03-02T14:11:05.000Z 2024-03-02 14:11:06
799565 AgVPjwh4gNY8gjsSZSI8kPEzDsQ2 steve@greenleaf-tdg.com on_bicycle 6.60 63 111 141 53.23163883 -1.15907049 0.0700 2024-03-02T14:05:41.000Z 2024-03-02 14:05:41
799564 AgVPjwh4gNY8gjsSZSI8kPEzDsQ2 steve@greenleaf-tdg.com on_bicycle 4.80 64 112 77 53.23164968 -1.15906172 0.0000 2024-03-02T14:04:01.000Z 2024-03-02 14:04:01
799563 AgVPjwh4gNY8gjsSZSI8kPEzDsQ2 steve@greenleaf-tdg.com on_foot 10.00 62 111 126 53.23158709 -1.15880980 2.1000 2024-03-02T13:59:22.000Z 2024-03-02 13:59:22
799562 AgVPjwh4gNY8gjsSZSI8kPEzDsQ2 steve@greenleaf-tdg.com in_vehicle 4.70 62 110 59 53.23191022 -1.15978956 0.0000 2024-03-02T13:53:44.000Z 2024-03-02 13:53:44
799561 AgVPjwh4gNY8gjsSZSI8kPEzDsQ2 steve@greenleaf-tdg.com in_vehicle 4.70 53 102 159 53.23537826 -1.15499988 14.8600 2024-03-02T13:47:27.000Z 2024-03-02 13:47:28
799560 AgVPjwh4gNY8gjsSZSI8kPEzDsQ2 steve@greenleaf-tdg.com in_vehicle 4.80 57 105 149 53.24362494 -1.16110176 21.3900 2024-03-02T13:46:35.000Z 2024-03-02 13:46:35
799559 AgVPjwh4gNY8gjsSZSI8kPEzDsQ2 steve@greenleaf-tdg.com in_vehicle 4.60 61 109 135 53.24877620 -1.16836646 22.5400 2024-03-02T13:46:00.036Z 2024-03-02 13:46:00
799558 AgVPjwh4gNY8gjsSZSI8kPEzDsQ2 steve@greenleaf-tdg.com in_vehicle 4.70 55 103 137 53.25176574 -1.17326125 21.9500 2024-03-02T13:45:39.000Z 2024-03-02 13:45:42
799557 AgVPjwh4gNY8gjsSZSI8kPEzDsQ2 steve@greenleaf-tdg.com in_vehicle 4.70 60 109 159 53.25964390 -1.18103401 19.7800 2024-03-02T13:44:51.000Z 2024-03-02 13:44:51
799556 AgVPjwh4gNY8gjsSZSI8kPEzDsQ2 steve@greenleaf-tdg.com in_vehicle 4.70 55 103 201 53.26853794 -1.18352106 19.7600 2024-03-02T13:43:55.000Z 2024-03-02 13:44:02
799555 AgVPjwh4gNY8gjsSZSI8kPEzDsQ2 steve@greenleaf-tdg.com in_vehicle 4.70 63 112 112 53.27555939 -1.18642566 14.8100 2024-03-02T13:42:22.000Z 2024-03-02 13:42:22
799554 AgVPjwh4gNY8gjsSZSI8kPEzDsQ2 steve@greenleaf-tdg.com in_vehicle 4.70 80 129 119 53.27953638 -1.19644479 17.3400 2024-03-02T13:41:26.000Z 2024-03-02 13:41:45
799553 AgVPjwh4gNY8gjsSZSI8kPEzDsQ2 steve@greenleaf-tdg.com in_vehicle 4.60 87 135 119 53.28104991 -1.20108709 11.6500 2024-03-02T13:41:00.030Z 2024-03-02 13:41:00
799552 AgVPjwh4gNY8gjsSZSI8kPEzDsQ2 steve@greenleaf-tdg.com in_vehicle 4.60 87 136 136 53.28265159 -1.20394989 11.6600 2024-03-02T13:40:34.000Z 2024-03-02 13:40:46
799551 AgVPjwh4gNY8gjsSZSI8kPEzDsQ2 steve@greenleaf-tdg.com in_vehicle 4.60 109 157 103 53.28557978 -1.21166795 11.5800 2024-03-02T13:39:31.000Z 2024-03-02 13:39:31
799550 AgVPjwh4gNY8gjsSZSI8kPEzDsQ2 steve@greenleaf-tdg.com in_vehicle 4.70 133 182 99 53.28780566 -1.22620750 18.9100 2024-03-02T13:38:19.000Z 2024-03-02 13:38:19
799549 AgVPjwh4gNY8gjsSZSI8kPEzDsQ2 steve@greenleaf-tdg.com in_vehicle 4.70 134 183 95 53.28948572 -1.24401146 23.9400 2024-03-02T13:37:26.000Z 2024-03-02 13:37:26
799548 AgVPjwh4gNY8gjsSZSI8kPEzDsQ2 steve@greenleaf-tdg.com in_vehicle 4.70 149 198 86 53.28881559 -1.25608144 14.9400 2024-03-02T13:36:45.000Z 2024-03-02 13:36:45
799547 AgVPjwh4gNY8gjsSZSI8kPEzDsQ2 steve@greenleaf-tdg.com in_vehicle 4.70 147 195 84 53.28851545 -1.26180860 7.9200 2024-03-02T13:35:59.037Z 2024-03-02 13:35:59
799546 AgVPjwh4gNY8gjsSZSI8kPEzDsQ2 steve@greenleaf-tdg.com in_vehicle 4.70 146 195 86 53.28834148 -1.26509388 20.3400 2024-03-02T13:35:45.000Z 2024-03-02 13:35:50
799545 AgVPjwh4gNY8gjsSZSI8kPEzDsQ2 steve@greenleaf-tdg.com in_vehicle 4.60 151 199 81 53.28960344 -1.28022090 19.7400 2024-03-02T13:34:55.000Z 2024-03-02 13:34:55
799544 AgVPjwh4gNY8gjsSZSI8kPEzDsQ2 steve@greenleaf-tdg.com in_vehicle 4.60 137 186 186 53.28767279 -1.29495871 19.4900 2024-03-02T13:33:20.000Z 2024-03-02 13:33:20
799543 AgVPjwh4gNY8gjsSZSI8kPEzDsQ2 steve@greenleaf-tdg.com in_vehicle 4.60 128 177 193 53.29655087 -1.29205171 18.8300 2024-03-02T13:32:30.000Z 2024-03-02 13:32:30
799542 AgVPjwh4gNY8gjsSZSI8kPEzDsQ2 steve@greenleaf-tdg.com in_vehicle 4.60 129 178 207 53.30506619 -1.28651322 20.8400 2024-03-02T13:31:38.000Z 2024-03-02 13:31:38
799541 AgVPjwh4gNY8gjsSZSI8kPEzDsQ2 steve@greenleaf-tdg.com in_vehicle 4.70 132 181 190 53.31196815 -1.28297732 20.3700 2024-03-02T13:30:59.027Z 2024-03-02 13:30:59
799540 AgVPjwh4gNY8gjsSZSI8kPEzDsQ2 steve@greenleaf-tdg.com in_vehicle 4.70 131 179 190 53.31371863 -1.28244326 19.5800 2024-03-02T13:30:49.000Z 2024-03-02 13:30:49
799539 AgVPjwh4gNY8gjsSZSI8kPEzDsQ2 steve@greenleaf-tdg.com in_vehicle 4.60 111 160 178 53.32279473 -1.28082657 20.4100 2024-03-02T13:29:57.000Z 2024-03-02 13:29:57
799538 AgVPjwh4gNY8gjsSZSI8kPEzDsQ2 steve@greenleaf-tdg.com still 4.60 106 154 157 53.33163763 -1.28406691 20.4800 2024-03-02T13:29:06.000Z 2024-03-02 13:29:06
799537 AgVPjwh4gNY8gjsSZSI8kPEzDsQ2 steve@greenleaf-tdg.com in_vehicle 4.60 106 155 171 53.33990353 -1.28998660 21.1300 2024-03-02T13:28:15.000Z 2024-03-02 13:28:15
799536 AgVPjwh4gNY8gjsSZSI8kPEzDsQ2 steve@greenleaf-tdg.com in_vehicle 4.70 86 135 195 53.34888361 -1.28776009 17.9600 2024-03-02T13:27:24.000Z 2024-03-02 13:27:24
799535 AgVPjwh4gNY8gjsSZSI8kPEzDsQ2 steve@greenleaf-tdg.com in_vehicle 4.70 95 144 191 53.35770337 -1.28435071 20.0300 2024-03-02T13:26:32.000Z 2024-03-02 13:26:32
799534 AgVPjwh4gNY8gjsSZSI8kPEzDsQ2 steve@greenleaf-tdg.com still 4.70 99 147 182 53.36375329 -1.28305460 20.9400 2024-03-02T13:25:58.036Z 2024-03-02 13:25:58
799533 AgVPjwh4gNY8gjsSZSI8kPEzDsQ2 steve@greenleaf-tdg.com in_vehicle 4.70 105 153 183 53.36676278 -1.28292794 20.8700 2024-03-02T13:25:42.000Z 2024-03-02 13:25:42
799532 AgVPjwh4gNY8gjsSZSI8kPEzDsQ2 steve@greenleaf-tdg.com in_vehicle 4.70 112 160 196 53.37573449 -1.27986581 18.5600 2024-03-02T13:24:48.000Z 2024-03-02 13:24:48
799531 AgVPjwh4gNY8gjsSZSI8kPEzDsQ2 steve@greenleaf-tdg.com still 4.70 113 161 165 53.38664751 -1.27892978 25.2700 2024-03-02T13:23:48.000Z 2024-03-02 13:23:48
799530 AgVPjwh4gNY8gjsSZSI8kPEzDsQ2 steve@greenleaf-tdg.com in_vehicle 4.70 95 144 117 53.39677378 -1.29158140 28.0000 2024-03-02T13:22:56.000Z 2024-03-02 13:22:56
799529 AgVPjwh4gNY8gjsSZSI8kPEzDsQ2 steve@greenleaf-tdg.com in_vehicle 4.60 96 145 94 53.39821415 -1.30673338 19.6000 2024-03-02T13:22:09.000Z 2024-03-02 13:22:09
799528 AgVPjwh4gNY8gjsSZSI8kPEzDsQ2 steve@greenleaf-tdg.com in_vehicle 4.70 71 119 94 53.39884696 -1.32191801 20.1500 2024-03-02T13:21:17.000Z 2024-03-02 13:21:17
799527 AgVPjwh4gNY8gjsSZSI8kPEzDsQ2 steve@greenleaf-tdg.com in_vehicle 4.70 59 108 91 53.39903675 -1.32750386 19.1100 2024-03-02T13:20:58.034Z 2024-03-02 13:20:58
799526 AgVPjwh4gNY8gjsSZSI8kPEzDsQ2 steve@greenleaf-tdg.com in_vehicle 4.60 40 89 89 53.39898787 -1.33699231 15.6200 2024-03-02T13:20:20.000Z 2024-03-02 13:20:20
799525 AgVPjwh4gNY8gjsSZSI8kPEzDsQ2 steve@greenleaf-tdg.com in_vehicle 4.60 38 87 73 53.39822477 -1.35213987 20.7800 2024-03-02T13:19:29.000Z 2024-03-02 13:19:29
799524 AgVPjwh4gNY8gjsSZSI8kPEzDsQ2 steve@greenleaf-tdg.com still 4.70 64 112 103 53.39713443 -1.36717581 20.4000 2024-03-02T13:18:35.000Z 2024-03-02 13:18:35
799523 AgVPjwh4gNY8gjsSZSI8kPEzDsQ2 steve@greenleaf-tdg.com in_vehicle 4.50 73 121 125 53.40104134 -1.38073174 20.6200 2024-03-02T13:17:44.000Z 2024-03-02 13:17:44
799522 AgVPjwh4gNY8gjsSZSI8kPEzDsQ2 steve@greenleaf-tdg.com in_vehicle 4.70 57 105 136 53.40646260 -1.39285249 20.5300 2024-03-02T13:16:54.000Z 2024-03-02 13:16:56
799521 AgVPjwh4gNY8gjsSZSI8kPEzDsQ2 steve@greenleaf-tdg.com in_vehicle 4.60 54 103 144 53.41365989 -1.40192638 21.7600 2024-03-02T13:16:06.000Z 2024-03-02 13:16:06
799520 AgVPjwh4gNY8gjsSZSI8kPEzDsQ2 steve@greenleaf-tdg.com in_vehicle 4.60 54 102 145 53.41481848 -1.40334788 20.6400 2024-03-02T13:15:58.034Z 2024-03-02 13:15:58
799519 AgVPjwh4gNY8gjsSZSI8kPEzDsQ2 steve@greenleaf-tdg.com still 4.70 58 106 145 53.42138888 -1.40968627 21.9500 2024-03-02T13:15:19.000Z 2024-03-02 13:15:19
799518 AgVPjwh4gNY8gjsSZSI8kPEzDsQ2 steve@greenleaf-tdg.com in_vehicle 4.60 54 103 147 53.42916727 -1.41777652 18.8600 2024-03-02T13:14:29.000Z 2024-03-02 13:14:29
799517 AgVPjwh4gNY8gjsSZSI8kPEzDsQ2 steve@greenleaf-tdg.com in_vehicle 4.70 54 103 132 53.43542643 -1.42890929 18.2600 2024-03-02T13:13:33.000Z 2024-03-02 13:13:33
799516 AgVPjwh4gNY8gjsSZSI8kPEzDsQ2 steve@greenleaf-tdg.com in_vehicle 4.50 65 114 149 53.44235350 -1.43884014 20.4100 2024-03-02T13:12:40.000Z 2024-03-02 13:12:40
799515 AgVPjwh4gNY8gjsSZSI8kPEzDsQ2 steve@greenleaf-tdg.com in_vehicle 4.60 94 142 173 53.45072312 -1.44456122 19.7900 2024-03-02T13:11:46.000Z 2024-03-02 13:11:46
799514 AgVPjwh4gNY8gjsSZSI8kPEzDsQ2 steve@greenleaf-tdg.com in_vehicle 4.60 122 171 159 53.45963170 -1.44664337 21.8200 2024-03-02T13:10:57.000Z 2024-03-02 13:10:57
799513 AgVPjwh4gNY8gjsSZSI8kPEzDsQ2 steve@greenleaf-tdg.com in_vehicle 4.60 128 176 156 53.46795327 -1.45281011 22.0800 2024-03-02T13:10:09.000Z 2024-03-02 13:10:09
799512 AgVPjwh4gNY8gjsSZSI8kPEzDsQ2 steve@greenleaf-tdg.com in_vehicle 4.60 133 182 151 53.47913595 -1.46275007 31.2900 2024-03-02T13:09:15.000Z 2024-03-02 13:09:15
799511 AgVPjwh4gNY8gjsSZSI8kPEzDsQ2 steve@greenleaf-tdg.com in_vehicle 4.50 147 196 159 53.49117629 -1.46997130 29.1800 2024-03-02T13:08:31.000Z 2024-03-02 13:08:31
799510 AgVPjwh4gNY8gjsSZSI8kPEzDsQ2 steve@greenleaf-tdg.com in_vehicle 4.70 124 173 153 53.50164768 -1.48240031 30.3500 2024-03-02T13:07:43.000Z 2024-03-02 13:07:43
799509 AgVPjwh4gNY8gjsSZSI8kPEzDsQ2 steve@greenleaf-tdg.com in_vehicle 4.80 84 133 190 53.51352291 -1.49039459 31.5600 2024-03-02T13:06:54.000Z 2024-03-02 13:06:54
799508 AgVPjwh4gNY8gjsSZSI8kPEzDsQ2 steve@greenleaf-tdg.com in_vehicle 4.70 75 124 146 53.52781284 -1.49395692 33.7700 2024-03-02T13:06:02.000Z 2024-03-02 13:06:02
799507 AgVPjwh4gNY8gjsSZSI8kPEzDsQ2 steve@greenleaf-tdg.com in_vehicle 4.70 75 124 144 53.52905821 -1.49540338 33.6700 2024-03-02T13:05:57.027Z 2024-03-02 13:05:57
799506 AgVPjwh4gNY8gjsSZSI8kPEzDsQ2 steve@greenleaf-tdg.com in_vehicle 4.70 97 147 154 53.53975129 -1.50815086 32.5800 2024-03-02T13:05:12.000Z 2024-03-02 13:05:12
799505 AgVPjwh4gNY8gjsSZSI8kPEzDsQ2 steve@greenleaf-tdg.com in_vehicle 4.80 144 193 138 53.55107585 -1.51803205 30.5500 2024-03-02T13:04:28.000Z 2024-03-02 13:04:28
799504 AgVPjwh4gNY8gjsSZSI8kPEzDsQ2 steve@greenleaf-tdg.com in_vehicle 4.70 121 170 144 53.55961539 -1.53405876 29.9000 2024-03-02T13:03:41.000Z 2024-03-02 13:03:41
799503 AgVPjwh4gNY8gjsSZSI8kPEzDsQ2 steve@greenleaf-tdg.com in_vehicle 4.70 83 132 173 53.56977746 -1.54093806 24.5000 2024-03-02T13:02:57.000Z 2024-03-02 13:02:57
799502 AgVPjwh4gNY8gjsSZSI8kPEzDsQ2 steve@greenleaf-tdg.com in_vehicle 4.70 74 123 202 53.58037231 -1.53685623 27.3200 2024-03-02T13:02:07.000Z 2024-03-02 13:02:07
799501 AgVPjwh4gNY8gjsSZSI8kPEzDsQ2 steve@greenleaf-tdg.com in_vehicle 4.80 70 120 148 53.59302133 -1.53956300 29.0800 2024-03-02T13:01:14.000Z 2024-03-02 13:01:14
799500 AgVPjwh4gNY8gjsSZSI8kPEzDsQ2 steve@greenleaf-tdg.com in_vehicle 4.70 73 123 138 53.59661871 -1.54449514 28.4500 2024-03-02T13:00:56.031Z 2024-03-02 13:00:56
799499 AgVPjwh4gNY8gjsSZSI8kPEzDsQ2 steve@greenleaf-tdg.com in_vehicle 4.70 78 127 165 53.60384130 -1.55113779 27.6300 2024-03-02T13:00:23.000Z 2024-03-02 13:00:23
799498 AgVPjwh4gNY8gjsSZSI8kPEzDsQ2 steve@greenleaf-tdg.com in_vehicle 4.70 109 158 194 53.61648727 -1.55139284 30.6700 2024-03-02T12:59:33.000Z 2024-03-02 12:59:33
799497 AgVPjwh4gNY8gjsSZSI8kPEzDsQ2 steve@greenleaf-tdg.com in_vehicle 4.70 82 131 203 53.62772439 -1.54162659 28.5300 2024-03-02T12:58:46.000Z 2024-03-02 12:58:46
799496 AgVPjwh4gNY8gjsSZSI8kPEzDsQ2 steve@greenleaf-tdg.com in_vehicle 4.70 72 121 210 53.64015761 -1.53645923 28.9900 2024-03-02T12:57:54.000Z 2024-03-02 12:57:54
799495 AgVPjwh4gNY8gjsSZSI8kPEzDsQ2 steve@greenleaf-tdg.com in_vehicle 4.70 40 89 193 53.65012000 -1.52867053 25.2300 2024-03-02T12:57:11.000Z 2024-03-02 12:57:11
799494 AgVPjwh4gNY8gjsSZSI8kPEzDsQ2 steve@greenleaf-tdg.com in_vehicle 4.70 39 88 146 53.66061994 -1.53291016 24.7100 2024-03-02T12:56:20.000Z 2024-03-02 12:56:20
799493 AgVPjwh4gNY8gjsSZSI8kPEzDsQ2 steve@greenleaf-tdg.com in_vehicle 4.80 42 91 143 53.66530413 -1.53823789 25.4300 2024-03-02T12:55:55.135Z 2024-03-02 12:55:55
799492 AgVPjwh4gNY8gjsSZSI8kPEzDsQ2 steve@greenleaf-tdg.com in_vehicle 4.80 46 95 132 53.66902216 -1.54435056 28.3300 2024-03-02T12:55:32.000Z 2024-03-02 12:55:32
799491 AgVPjwh4gNY8gjsSZSI8kPEzDsQ2 steve@greenleaf-tdg.com in_vehicle 4.90 83 132 172 53.68040405 -1.55409786 28.8700 2024-03-02T12:54:41.000Z 2024-03-02 12:54:41
799490 AgVPjwh4gNY8gjsSZSI8kPEzDsQ2 steve@greenleaf-tdg.com in_vehicle 4.80 70 119 171 53.69124478 -1.55680898 26.8400 2024-03-02T12:53:57.000Z 2024-03-02 12:53:57
799489 AgVPjwh4gNY8gjsSZSI8kPEzDsQ2 steve@greenleaf-tdg.com in_vehicle 4.70 74 123 202 53.70202786 -1.55476033 24.4000 2024-03-02T12:53:11.000Z 2024-03-02 12:53:11
799488 AgVPjwh4gNY8gjsSZSI8kPEzDsQ2 steve@greenleaf-tdg.com in_vehicle 4.80 88 137 227 53.71133787 -1.54522053 26.9900 2024-03-02T12:52:23.000Z 2024-03-02 12:52:23
799487 AgVPjwh4gNY8gjsSZSI8kPEzDsQ2 steve@greenleaf-tdg.com in_vehicle 4.80 91 140 323 53.71281275 -1.53315370 14.5700 2024-03-02T12:51:16.000Z 2024-03-02 12:51:16
799486 AgVPjwh4gNY8gjsSZSI8kPEzDsQ2 steve@greenleaf-tdg.com in_vehicle 4.80 88 137 317 53.71066574 -1.53017910 16.4000 2024-03-02T12:50:55.030Z 2024-03-02 12:50:55
799485 AgVPjwh4gNY8gjsSZSI8kPEzDsQ2 steve@greenleaf-tdg.com in_vehicle 4.80 86 134 282 53.70881623 -1.52287130 19.9000 2024-03-02T12:50:24.000Z 2024-03-02 12:50:24
799484 AgVPjwh4gNY8gjsSZSI8kPEzDsQ2 steve@greenleaf-tdg.com in_vehicle 4.80 74 123 317 53.70473850 -1.50934073 21.8700 2024-03-02T12:49:27.000Z 2024-03-02 12:49:27
799483 AgVPjwh4gNY8gjsSZSI8kPEzDsQ2 steve@greenleaf-tdg.com in_vehicle 4.80 66 115 117 53.69951453 -1.50692182 12.3300 2024-03-02T12:48:34.000Z 2024-03-02 12:48:34
799482 AgVPjwh4gNY8gjsSZSI8kPEzDsQ2 steve@greenleaf-tdg.com in_vehicle 4.80 64 113 241 53.69986596 -1.50995218 0.0000 2024-03-02T12:47:57.000Z 2024-03-02 12:47:57
799481 AgVPjwh4gNY8gjsSZSI8kPEzDsQ2 steve@greenleaf-tdg.com in_vehicle 4.80 64 113 265 53.69978356 -1.51033114 0.0000 2024-03-02T12:47:18.000Z 2024-03-02 12:47:18
799480 AgVPjwh4gNY8gjsSZSI8kPEzDsQ2 steve@greenleaf-tdg.com in_vehicle 4.80 65 114 299 53.70004574 -1.51092866 0.4300 2024-03-02T12:45:55.000Z 2024-03-02 12:45:55
799479 AgVPjwh4gNY8gjsSZSI8kPEzDsQ2 steve@greenleaf-tdg.com in_vehicle 4.80 65 114 295 53.70005238 -1.51094755 0.4000 2024-03-02T12:45:54.040Z 2024-03-02 12:45:54
799478 AgVPjwh4gNY8gjsSZSI8kPEzDsQ2 steve@greenleaf-tdg.com in_vehicle 4.70 76 125 134 53.70526058 -1.50995241 29.5200 2024-03-02T12:43:35.000Z 2024-03-02 12:43:35
799477 AgVPjwh4gNY8gjsSZSI8kPEzDsQ2 steve@greenleaf-tdg.com in_vehicle 4.80 88 137 102 53.70907964 -1.52384044 19.4500 2024-03-02T12:42:41.000Z 2024-03-02 12:42:41
799476 AgVPjwh4gNY8gjsSZSI8kPEzDsQ2 steve@greenleaf-tdg.com in_vehicle 4.80 99 148 225 53.71658844 -1.53240425 19.4100 2024-03-02T12:41:35.000Z 2024-03-02 12:41:35
799475 AgVPjwh4gNY8gjsSZSI8kPEzDsQ2 steve@greenleaf-tdg.com in_vehicle 4.70 97 146 229 53.72322495 -1.52019109 29.2900 2024-03-02T12:40:54.034Z 2024-03-02 12:40:54
799474 AgVPjwh4gNY8gjsSZSI8kPEzDsQ2 steve@greenleaf-tdg.com in_vehicle 4.70 95 144 222 53.72518243 -1.51671416 28.4600 2024-03-02T12:40:43.000Z 2024-03-02 12:40:43
799473 AgVPjwh4gNY8gjsSZSI8kPEzDsQ2 steve@greenleaf-tdg.com in_vehicle 4.80 98 147 133 53.73159363 -1.51052502 16.5200 2024-03-02T12:40:00.000Z 2024-03-02 12:40:00
799472 AgVPjwh4gNY8gjsSZSI8kPEzDsQ2 steve@greenleaf-tdg.com in_vehicle 4.80 102 151 86 53.73167305 -1.51366121 0.0000 2024-03-02T12:39:41.000Z 2024-03-02 12:39:41
799471 AgVPjwh4gNY8gjsSZSI8kPEzDsQ2 steve@greenleaf-tdg.com in_vehicle 4.70 98 147 106 53.73246954 -1.51877772 26.9600 2024-03-02T12:38:57.000Z 2024-03-02 12:38:57
799470 AgVPjwh4gNY8gjsSZSI8kPEzDsQ2 steve@greenleaf-tdg.com in_vehicle 4.70 112 161 78 53.73382755 -1.54001578 29.7400 2024-03-02T12:38:03.000Z 2024-03-02 12:38:03
799469 AgVPjwh4gNY8gjsSZSI8kPEzDsQ2 steve@greenleaf-tdg.com in_vehicle 4.90 122 171 91 53.73341054 -1.56134529 28.4200 2024-03-02T12:37:16.000Z 2024-03-02 12:37:16
799468 AgVPjwh4gNY8gjsSZSI8kPEzDsQ2 steve@greenleaf-tdg.com in_vehicle 4.70 142 191 74 53.73294156 -1.58284512 30.2300 2024-03-02T12:36:27.000Z 2024-03-02 12:36:27
799467 AgVPjwh4gNY8gjsSZSI8kPEzDsQ2 steve@greenleaf-tdg.com in_vehicle 4.80 137 186 85 53.72976377 -1.59625748 25.6300 2024-03-02T12:35:53.092Z 2024-03-02 12:35:53
799466 AgVPjwh4gNY8gjsSZSI8kPEzDsQ2 steve@greenleaf-tdg.com in_vehicle 4.70 139 188 101 53.72985610 -1.60064391 27.4300 2024-03-02T12:35:42.000Z 2024-03-02 12:35:42
799465 AgVPjwh4gNY8gjsSZSI8kPEzDsQ2 steve@greenleaf-tdg.com in_vehicle 4.80 157 207 125 53.73491959 -1.61672922 26.4900 2024-03-02T12:34:58.000Z 2024-03-02 12:34:58
799464 AgVPjwh4gNY8gjsSZSI8kPEzDsQ2 steve@greenleaf-tdg.com in_vehicle 4.80 159 208 156 53.74235926 -1.62538908 21.4200 2024-03-02T12:34:16.000Z 2024-03-02 12:34:16
799463 AgVPjwh4gNY8gjsSZSI8kPEzDsQ2 steve@greenleaf-tdg.com in_vehicle 4.80 167 217 82 53.74766930 -1.64146922 23.5200 2024-03-02T12:33:19.000Z 2024-03-02 12:33:19
799462 AgVPjwh4gNY8gjsSZSI8kPEzDsQ2 steve@greenleaf-tdg.com in_vehicle 4.90 171 220 75 53.74537817 -1.65628124 21.4900 2024-03-02T12:32:33.000Z 2024-03-02 12:32:33
799461 AgVPjwh4gNY8gjsSZSI8kPEzDsQ2 steve@greenleaf-tdg.com in_vehicle 4.80 146 195 75 53.74250105 -1.67407583 24.6000 2024-03-02T12:31:38.000Z 2024-03-02 12:31:38
799460 AgVPjwh4gNY8gjsSZSI8kPEzDsQ2 steve@greenleaf-tdg.com in_vehicle 4.80 139 189 102 53.74151240 -1.68936313 22.2800 2024-03-02T12:30:53.000Z 2024-03-02 12:30:53
799459 AgVPjwh4gNY8gjsSZSI8kPEzDsQ2 steve@greenleaf-tdg.com in_vehicle 4.80 138 187 109 53.74550213 -1.70312286 22.3700 2024-03-02T12:30:09.000Z 2024-03-02 12:30:09
799458 AgVPjwh4gNY8gjsSZSI8kPEzDsQ2 steve@greenleaf-tdg.com in_vehicle 4.80 129 178 48 53.74366562 -1.71813439 21.3100 2024-03-02T12:29:16.000Z 2024-03-02 12:29:16
799457 AgVPjwh4gNY8gjsSZSI8kPEzDsQ2 steve@greenleaf-tdg.com in_vehicle 4.80 98 147 82 53.73812627 -1.72590277 13.5800 2024-03-02T12:28:35.000Z 2024-03-02 12:28:35
799456 AgVPjwh4gNY8gjsSZSI8kPEzDsQ2 steve@greenleaf-tdg.com in_vehicle 4.70 111 160 150 53.74558196 -1.73452773 20.5600 2024-03-02T12:27:45.000Z 2024-03-02 12:27:45
799455 AgVPjwh4gNY8gjsSZSI8kPEzDsQ2 steve@greenleaf-tdg.com in_vehicle 4.70 153 202 167 53.75556757 -1.74184173 25.6800 2024-03-02T12:26:55.000Z 2024-03-02 12:26:55
799454 AgVPjwh4gNY8gjsSZSI8kPEzDsQ2 steve@greenleaf-tdg.com in_vehicle 4.80 196 245 148 53.76605833 -1.74695328 24.5200 2024-03-02T12:26:06.000Z 2024-03-02 12:26:06
799453 AgVPjwh4gNY8gjsSZSI8kPEzDsQ2 steve@greenleaf-tdg.com in_vehicle 4.80 191 241 157 53.76857222 -1.74923376 18.8600 2024-03-02T12:25:52.037Z 2024-03-02 12:25:52
799452 AgVPjwh4gNY8gjsSZSI8kPEzDsQ2 steve@greenleaf-tdg.com in_vehicle 4.90 193 242 113 53.77117207 -1.75976414 13.5700 2024-03-02T12:24:43.000Z 2024-03-02 12:24:43
799451 AgVPjwh4gNY8gjsSZSI8kPEzDsQ2 steve@greenleaf-tdg.com in_vehicle 4.80 190 240 103 53.77223830 -1.76228918 0.0000 2024-03-02T12:24:17.000Z 2024-03-02 12:24:17
799450 AgVPjwh4gNY8gjsSZSI8kPEzDsQ2 steve@greenleaf-tdg.com in_vehicle 4.80 190 239 101 53.77230830 -1.76267558 7.1600 2024-03-02T12:23:04.000Z 2024-03-02 12:23:04
799449 AgVPjwh4gNY8gjsSZSI8kPEzDsQ2 steve@greenleaf-tdg.com in_vehicle 4.80 193 243 127 53.77530901 -1.77026665 10.6800 2024-03-02T12:22:10.000Z 2024-03-02 12:22:10
799448 AgVPjwh4gNY8gjsSZSI8kPEzDsQ2 steve@greenleaf-tdg.com in_vehicle 4.80 195 245 112 53.77606883 -1.77319003 0.0000 2024-03-02T12:21:46.000Z 2024-03-02 12:21:46
799447 AgVPjwh4gNY8gjsSZSI8kPEzDsQ2 steve@greenleaf-tdg.com in_vehicle 4.90 196 246 112 53.77618004 -1.77370834 8.6900 2024-03-02T12:20:51.041Z 2024-03-02 12:20:51
799446 AgVPjwh4gNY8gjsSZSI8kPEzDsQ2 steve@greenleaf-tdg.com still 4.90 196 246 109 53.77649478 -1.77506699 7.8600 2024-03-02T12:20:41.000Z 2024-03-02 12:20:41
799445 AgVPjwh4gNY8gjsSZSI8kPEzDsQ2 steve@greenleaf-tdg.com in_vehicle 4.80 197 247 135 53.77712621 -1.77799840 0.0000 2024-03-02T12:19:31.000Z 2024-03-02 12:19:32
799444 AgVPjwh4gNY8gjsSZSI8kPEzDsQ2 steve@greenleaf-tdg.com in_vehicle 4.80 191 241 133 53.78110168 -1.78107013 10.4200 2024-03-02T12:16:19.000Z 2024-03-02 12:16:19
799443 AgVPjwh4gNY8gjsSZSI8kPEzDsQ2 steve@greenleaf-tdg.com in_vehicle 4.80 189 239 137 53.78241677 -1.78315458 0.0000 2024-03-02T12:15:52.000Z 2024-03-02 12:15:53
799442 AgVPjwh4gNY8gjsSZSI8kPEzDsQ2 steve@greenleaf-tdg.com in_vehicle 4.80 189 238 137 53.78243666 -1.78317971 0.0000 2024-03-02T12:15:12.000Z 2024-03-02 12:15:12
799441 AgVPjwh4gNY8gjsSZSI8kPEzDsQ2 steve@greenleaf-tdg.com in_vehicle 4.80 186 235 100 53.78297687 -1.78468406 12.1700 2024-03-02T12:14:35.000Z 2024-03-02 12:14:35
799440 AgVPjwh4gNY8gjsSZSI8kPEzDsQ2 steve@greenleaf-tdg.com in_vehicle 4.80 173 222 84 53.78443628 -1.79026586 7.0500 2024-03-02T12:13:27.000Z 2024-03-02 12:13:27
799439 AgVPjwh4gNY8gjsSZSI8kPEzDsQ2 steve@greenleaf-tdg.com in_vehicle 4.90 181 231 98 53.78411333 -1.80239220 14.4200 2024-03-02T12:12:08.000Z 2024-03-02 12:12:08
799438 AgVPjwh4gNY8gjsSZSI8kPEzDsQ2 steve@greenleaf-tdg.com in_vehicle 4.90 212 261 94 53.78485047 -1.81452568 13.0900 2024-03-02T12:11:05.000Z 2024-03-02 12:11:05
799437 AgVPjwh4gNY8gjsSZSI8kPEzDsQ2 steve@greenleaf-tdg.com in_vehicle 4.90 215 265 85 53.78492149 -1.81701676 7.9700 2024-03-02T12:10:50.033Z 2024-03-02 12:10:52
799436 AgVPjwh4gNY8gjsSZSI8kPEzDsQ2 steve@greenleaf-tdg.com in_vehicle 4.80 199 249 92 53.78727045 -1.82276860 12.7000 2024-03-02T12:09:29.000Z 2024-03-02 12:09:29
799435 AgVPjwh4gNY8gjsSZSI8kPEzDsQ2 steve@greenleaf-tdg.com in_vehicle 4.90 176 226 196 53.78765367 -1.83494725 12.6600 2024-03-02T12:08:05.000Z 2024-03-02 12:08:05
799434 AgVPjwh4gNY8gjsSZSI8kPEzDsQ2 steve@greenleaf-tdg.com in_vehicle 4.90 205 255 131 53.79116888 -1.83321362 6.6000 2024-03-02T12:07:31.000Z 2024-03-02 12:07:31
799433 AgVPjwh4gNY8gjsSZSI8kPEzDsQ2 steve@greenleaf-tdg.com in_vehicle 4.90 227 277 83 53.79058644 -1.84228297 11.5500 2024-03-02T12:06:18.000Z 2024-03-02 12:06:18
799432 AgVPjwh4gNY8gjsSZSI8kPEzDsQ2 steve@greenleaf-tdg.com in_vehicle 4.90 231 281 82 53.79028449 -1.84646258 10.3900 2024-03-02T12:05:50.026Z 2024-03-02 12:05:50
799431 AgVPjwh4gNY8gjsSZSI8kPEzDsQ2 steve@greenleaf-tdg.com in_vehicle 5.10 239 289 100 53.79041415 -1.85144895 10.2600 2024-03-02T12:05:01.000Z 2024-03-02 12:05:01
799430 AgVPjwh4gNY8gjsSZSI8kPEzDsQ2 steve@greenleaf-tdg.com still 4.80 262 312 327 53.79224294 -1.85348741 0.2600 2024-03-02T08:27:52.000Z 2024-03-02 08:27:52
799429 AgVPjwh4gNY8gjsSZSI8kPEzDsQ2 steve@greenleaf-tdg.com on_foot 4.80 261 311 26 53.79210458 -1.85342181 0.2100 2024-03-02T08:19:52.042Z 2024-03-02 08:19:52
799428 AgVPjwh4gNY8gjsSZSI8kPEzDsQ2 steve@greenleaf-tdg.com in_vehicle 28.20 261 311 92 53.79177252 -1.85384347 0.0000 2024-03-02T08:19:15.000Z 2024-03-02 08:19:15
799427 AgVPjwh4gNY8gjsSZSI8kPEzDsQ2 steve@greenleaf-tdg.com in_vehicle 4.90 226 276 263 53.79050288 -1.84295693 14.7000 2024-03-02T08:16:23.000Z 2024-03-02 08:16:23
799426 AgVPjwh4gNY8gjsSZSI8kPEzDsQ2 steve@greenleaf-tdg.com in_vehicle 4.80 207 257 265 53.79108300 -1.83382467 11.1300 2024-03-02T08:15:40.000Z 2024-03-02 08:15:40
799425 AgVPjwh4gNY8gjsSZSI8kPEzDsQ2 steve@greenleaf-tdg.com in_vehicle 4.90 183 232 252 53.79182155 -1.82494554 12.4100 2024-03-02T08:14:52.038Z 2024-03-02 08:14:52
799424 AgVPjwh4gNY8gjsSZSI8kPEzDsQ2 steve@greenleaf-tdg.com in_vehicle 4.90 182 232 250 53.79185733 -1.82476624 12.2400 2024-03-02T08:14:51.000Z 2024-03-02 08:14:51
799423 AgVPjwh4gNY8gjsSZSI8kPEzDsQ2 steve@greenleaf-tdg.com in_vehicle 4.90 160 209 254 53.79431299 -1.81332749 14.5900 2024-03-02T08:13:52.000Z 2024-03-02 08:13:52
799422 AgVPjwh4gNY8gjsSZSI8kPEzDsQ2 steve@greenleaf-tdg.com in_vehicle 4.90 144 194 253 53.79644146 -1.80167026 13.3100 2024-03-02T08:12:53.000Z 2024-03-02 08:12:53
799421 AgVPjwh4gNY8gjsSZSI8kPEzDsQ2 steve@greenleaf-tdg.com in_vehicle 4.90 142 191 240 53.79866097 -1.79336039 10.7100 2024-03-02T08:12:00.000Z 2024-03-02 08:12:00
799420 AgVPjwh4gNY8gjsSZSI8kPEzDsQ2 steve@greenleaf-tdg.com in_vehicle 4.80 140 189 239 53.80137891 -1.78204442 12.9900 2024-03-02T08:10:27.000Z 2024-03-02 08:10:27
799419 AgVPjwh4gNY8gjsSZSI8kPEzDsQ2 steve@greenleaf-tdg.com in_vehicle 4.80 155 205 240 53.80349242 -1.77638972 10.3200 2024-03-02T08:09:51.051Z 2024-03-02 08:09:51
799418 AgVPjwh4gNY8gjsSZSI8kPEzDsQ2 steve@greenleaf-tdg.com in_vehicle 4.90 156 206 227 53.80442688 -1.77451667 11.8300 2024-03-02T08:09:15.000Z 2024-03-02 08:09:15
799417 AgVPjwh4gNY8gjsSZSI8kPEzDsQ2 steve@greenleaf-tdg.com in_vehicle 4.80 134 183 239 53.80641104 -1.76600111 11.7400 2024-03-02T08:08:20.000Z 2024-03-02 08:08:20
799416 AgVPjwh4gNY8gjsSZSI8kPEzDsQ2 steve@greenleaf-tdg.com in_vehicle 4.80 100 150 252 53.80970462 -1.75500724 12.7400 2024-03-02T08:07:02.000Z 2024-03-02 08:07:02
799415 AgVPjwh4gNY8gjsSZSI8kPEzDsQ2 steve@greenleaf-tdg.com in_vehicle 4.70 144 193 245 53.81060568 -1.74596151 8.5300 2024-03-02T08:05:53.000Z 2024-03-02 08:05:53
799414 AgVPjwh4gNY8gjsSZSI8kPEzDsQ2 steve@greenleaf-tdg.com in_vehicle 4.80 180 229 228 53.81439937 -1.73832623 12.5200 2024-03-02T08:04:51.048Z 2024-03-02 08:04:51
799413 AgVPjwh4gNY8gjsSZSI8kPEzDsQ2 steve@greenleaf-tdg.com in_vehicle 4.80 187 237 229 53.81528248 -1.73664924 12.4500 2024-03-02T08:04:39.000Z 2024-03-02 08:04:39
799412 AgVPjwh4gNY8gjsSZSI8kPEzDsQ2 steve@greenleaf-tdg.com on_foot 4.70 193 243 316 53.81667123 -1.73460981 1.0000 2024-03-02T08:01:52.000Z 2024-03-02 08:01:53
799411 AgVPjwh4gNY8gjsSZSI8kPEzDsQ2 steve@greenleaf-tdg.com in_vehicle 4.70 201 250 248 53.81698440 -1.73202508 10.2200 2024-03-02T07:59:44.045Z 2024-03-02 07:59:44
799410 AgVPjwh4gNY8gjsSZSI8kPEzDsQ2 steve@greenleaf-tdg.com in_vehicle 4.70 194 244 282 53.81736066 -1.72766480 11.6900 2024-03-02T07:59:16.000Z 2024-03-02 07:59:16
799409 AgVPjwh4gNY8gjsSZSI8kPEzDsQ2 steve@greenleaf-tdg.com in_vehicle 4.70 175 225 223 53.81705784 -1.71842787 11.7300 2024-03-02T07:58:13.000Z 2024-03-02 07:58:13
799408 AgVPjwh4gNY8gjsSZSI8kPEzDsQ2 steve@greenleaf-tdg.com in_vehicle 4.70 136 185 177 53.82402075 -1.71516831 14.8300 2024-03-02T07:57:14.000Z 2024-03-02 07:57:14
799407 AgVPjwh4gNY8gjsSZSI8kPEzDsQ2 steve@greenleaf-tdg.com in_vehicle 4.80 96 145 303 53.82963643 -1.70751533 13.7100 2024-03-02T07:55:45.000Z 2024-03-02 07:55:45
799406 AgVPjwh4gNY8gjsSZSI8kPEzDsQ2 steve@greenleaf-tdg.com in_vehicle 4.70 127 177 259 53.82978630 -1.69559159 13.1600 2024-03-02T07:54:43.121Z 2024-03-02 07:54:43
799405 AgVPjwh4gNY8gjsSZSI8kPEzDsQ2 steve@greenleaf-tdg.com in_vehicle 4.70 129 178 260 53.82982930 -1.69519913 12.8300 2024-03-02T07:54:41.000Z 2024-03-02 07:54:41
799404 AgVPjwh4gNY8gjsSZSI8kPEzDsQ2 steve@greenleaf-tdg.com in_vehicle 4.80 115 165 302 53.83025457 -1.68593785 9.0300 2024-03-02T07:53:48.000Z 2024-03-02 07:53:48
799403 AgVPjwh4gNY8gjsSZSI8kPEzDsQ2 steve@greenleaf-tdg.com in_vehicle 4.80 108 157 280 53.82599660 -1.67605019 16.0600 2024-03-02T07:52:37.000Z 2024-03-02 07:52:37
799402 AgVPjwh4gNY8gjsSZSI8kPEzDsQ2 steve@greenleaf-tdg.com in_vehicle 4.70 60 110 300 53.82341078 -1.66451524 12.8300 2024-03-02T07:51:23.000Z 2024-03-02 07:51:23
799401 AgVPjwh4gNY8gjsSZSI8kPEzDsQ2 steve@greenleaf-tdg.com in_vehicle 4.70 59 109 312 53.81994370 -1.65378671 12.6700 2024-03-02T07:50:11.000Z 2024-03-02 07:50:11
799400 AgVPjwh4gNY8gjsSZSI8kPEzDsQ2 steve@greenleaf-tdg.com in_vehicle 4.70 70 119 303 53.81806330 -1.64943607 11.9300 2024-03-02T07:49:43.101Z 2024-03-02 07:49:43
799399 AgVPjwh4gNY8gjsSZSI8kPEzDsQ2 steve@greenleaf-tdg.com in_vehicle 4.60 97 146 306 53.81605427 -1.64729346 8.4600 2024-03-02T07:49:02.000Z 2024-03-02 07:49:02
799398 AgVPjwh4gNY8gjsSZSI8kPEzDsQ2 steve@greenleaf-tdg.com unknown 3.90 105 155 93 53.81494519 -1.64388232 0.0000 2024-03-02T00:57:35.914Z 2024-03-02 00:57:39
799397 AgVPjwh4gNY8gjsSZSI8kPEzDsQ2 steve@greenleaf-tdg.com still 30.00 108 158 -1 53.81494367 -1.64391457 -1.0000 2024-03-01T23:37:30.585Z 2024-03-01 23:37:31
799396 AgVPjwh4gNY8gjsSZSI8kPEzDsQ2 steve@greenleaf-tdg.com on_foot 4.80 108 157 -1 53.81499443 -1.64391291 0.0000 2024-03-01T23:31:57.000Z 2024-03-01 23:31:57
799395 AgVPjwh4gNY8gjsSZSI8kPEzDsQ2 steve@greenleaf-tdg.com on_foot 30.00 105 154 -1 53.81494367 -1.64391457 -1.0000 2024-03-01T23:30:59.451Z 2024-03-01 23:30:59
799394 AgVPjwh4gNY8gjsSZSI8kPEzDsQ2 steve@greenleaf-tdg.com on_foot 30.00 105 154 -1 53.81494367 -1.64391457 -1.0000 2024-03-01T23:30:55.376Z 2024-03-01 23:30:59
799393 AgVPjwh4gNY8gjsSZSI8kPEzDsQ2 steve@greenleaf-tdg.com on_foot 14.90 106 156 43 53.81468696 -1.64378714 0.8300 2024-03-01T23:26:12.000Z 2024-03-01 23:26:13
799392 AgVPjwh4gNY8gjsSZSI8kPEzDsQ2 steve@greenleaf-tdg.com in_vehicle 4.80 109 158 118 53.81462970 -1.64413146 0.0000 2024-03-01T23:23:47.000Z 2024-03-01 23:23:47
799391 AgVPjwh4gNY8gjsSZSI8kPEzDsQ2 steve@greenleaf-tdg.com in_vehicle 4.70 108 158 93 53.81466571 -1.64456178 3.9400 2024-03-01T23:23:10.000Z 2024-03-01 23:23:10
799390 AgVPjwh4gNY8gjsSZSI8kPEzDsQ2 steve@greenleaf-tdg.com in_vehicle 4.70 108 157 93 53.81466116 -1.64462295 4.0900 2024-03-01T23:23:09.052Z 2024-03-01 23:23:09
799389 AgVPjwh4gNY8gjsSZSI8kPEzDsQ2 steve@greenleaf-tdg.com in_vehicle 4.70 61 111 130 53.81936185 -1.65257989 13.2300 2024-03-01T23:18:58.000Z 2024-03-01 23:18:58
799388 AgVPjwh4gNY8gjsSZSI8kPEzDsQ2 steve@greenleaf-tdg.com in_vehicle 4.80 63 112 123 53.82303928 -1.65928809 11.2000 2024-03-01T23:18:10.000Z 2024-03-01 23:18:10
799387 AgVPjwh4gNY8gjsSZSI8kPEzDsQ2 steve@greenleaf-tdg.com in_vehicle 4.80 63 112 116 53.82308868 -1.65943652 11.1500 2024-03-01T23:18:09.038Z 2024-03-01 23:18:09
799386 AgVPjwh4gNY8gjsSZSI8kPEzDsQ2 steve@greenleaf-tdg.com in_vehicle 4.80 71 121 221 53.83047953 -1.65793218 20.6600 2024-03-01T23:16:12.000Z 2024-03-01 23:16:12
799385 AgVPjwh4gNY8gjsSZSI8kPEzDsQ2 steve@greenleaf-tdg.com in_vehicle 4.70 97 147 246 53.83449445 -1.65175790 10.1400 2024-03-01T23:15:38.000Z 2024-03-01 23:15:38
799384 AgVPjwh4gNY8gjsSZSI8kPEzDsQ2 steve@greenleaf-tdg.com in_vehicle 4.70 102 152 234 53.83430437 -1.63953373 14.0500 2024-03-01T23:14:10.000Z 2024-03-01 23:14:10
799383 AgVPjwh4gNY8gjsSZSI8kPEzDsQ2 steve@greenleaf-tdg.com in_vehicle 4.70 111 160 261 53.83585906 -1.62754172 14.4700 2024-03-01T23:13:15.000Z 2024-03-01 23:13:15
799382 AgVPjwh4gNY8gjsSZSI8kPEzDsQ2 steve@greenleaf-tdg.com in_vehicle 4.70 108 157 261 53.83600630 -1.62599712 15.5800 2024-03-01T23:13:08.046Z 2024-03-01 23:13:08
799381 AgVPjwh4gNY8gjsSZSI8kPEzDsQ2 steve@greenleaf-tdg.com in_vehicle 4.70 80 130 252 53.83693725 -1.61546369 18.2000 2024-03-01T23:12:21.000Z 2024-03-01 23:12:21
799380 AgVPjwh4gNY8gjsSZSI8kPEzDsQ2 steve@greenleaf-tdg.com in_vehicle 4.70 112 162 279 53.83858955 -1.60336822 15.7600 2024-03-01T23:11:30.000Z 2024-03-01 23:11:30
799379 AgVPjwh4gNY8gjsSZSI8kPEzDsQ2 steve@greenleaf-tdg.com in_vehicle 4.70 118 167 291 53.83807799 -1.60026141 0.0000 2024-03-01T23:11:11.000Z 2024-03-01 23:11:12
799378 AgVPjwh4gNY8gjsSZSI8kPEzDsQ2 steve@greenleaf-tdg.com in_vehicle 4.70 121 170 300 53.83774995 -1.59920539 11.8600 2024-03-01T23:10:28.000Z 2024-03-01 23:10:28
799377 AgVPjwh4gNY8gjsSZSI8kPEzDsQ2 steve@greenleaf-tdg.com still 4.70 110 159 230 53.84221569 -1.58602274 18.5700 2024-03-01T23:09:20.000Z 2024-03-01 23:09:20
799376 AgVPjwh4gNY8gjsSZSI8kPEzDsQ2 steve@greenleaf-tdg.com in_vehicle 4.70 104 153 274 53.84279283 -1.58287496 0.0000 2024-03-01T23:09:01.000Z 2024-03-01 23:09:01
799375 AgVPjwh4gNY8gjsSZSI8kPEzDsQ2 steve@greenleaf-tdg.com in_vehicle 4.70 104 153 274 53.84279283 -1.58287496 0.0000 2024-03-01T23:09:00.000Z 2024-03-01 23:09:01
799374 AgVPjwh4gNY8gjsSZSI8kPEzDsQ2 steve@greenleaf-tdg.com in_vehicle 4.70 81 130 267 53.84212729 -1.57617723 20.7200 2024-03-01T23:08:07.042Z 2024-03-01 23:08:07
799373 AgVPjwh4gNY8gjsSZSI8kPEzDsQ2 steve@greenleaf-tdg.com in_vehicle 4.70 79 128 260 53.84219998 -1.57522786 21.5300 2024-03-01T23:08:04.000Z 2024-03-01 23:08:04
799372 AgVPjwh4gNY8gjsSZSI8kPEzDsQ2 steve@greenleaf-tdg.com still 4.70 113 162 260 53.84230609 -1.56002386 17.6800 2024-03-01T23:07:15.000Z 2024-03-01 23:07:15
799371 AgVPjwh4gNY8gjsSZSI8kPEzDsQ2 steve@greenleaf-tdg.com in_vehicle 4.70 119 168 253 53.84273312 -1.55697174 0.0000 2024-03-01T23:06:57.000Z 2024-03-01 23:06:58
799370 AgVPjwh4gNY8gjsSZSI8kPEzDsQ2 steve@greenleaf-tdg.com in_vehicle 4.70 122 171 246 53.84336346 -1.55407429 18.2000 2024-03-01T23:05:56.000Z 2024-03-01 23:05:56
799369 AgVPjwh4gNY8gjsSZSI8kPEzDsQ2 steve@greenleaf-tdg.com in_vehicle 14.20 136 185 251 53.84811564 -1.54116309 17.9300 2024-03-01T23:04:52.000Z 2024-03-01 23:04:52
799368 AgVPjwh4gNY8gjsSZSI8kPEzDsQ2 steve@greenleaf-tdg.com in_vehicle 14.20 144 193 302 53.84814115 -1.53500122 6.2600 2024-03-01T23:04:20.000Z 2024-03-01 23:04:20
799367 AgVPjwh4gNY8gjsSZSI8kPEzDsQ2 steve@greenleaf-tdg.com in_vehicle 14.20 139 188 319 53.84635037 -1.53446587 0.0000 2024-03-01T23:03:51.001Z 2024-03-01 23:03:51
799366 AgVPjwh4gNY8gjsSZSI8kPEzDsQ2 steve@greenleaf-tdg.com in_vehicle 14.20 142 190 351 53.84442277 -1.53391122 5.1000 2024-03-01T23:03:06.047Z 2024-03-01 23:03:06
799365 AgVPjwh4gNY8gjsSZSI8kPEzDsQ2 steve@greenleaf-tdg.com in_vehicle 14.20 142 191 351 53.84418856 -1.53384037 7.8400 2024-03-01T23:02:58.000Z 2024-03-01 23:02:58
799364 AgVPjwh4gNY8gjsSZSI8kPEzDsQ2 steve@greenleaf-tdg.com in_vehicle 14.20 140 189 3 53.84242909 -1.53373467 0.4200 2024-03-01T23:02:28.000Z 2024-03-01 23:02:28
799363 AgVPjwh4gNY8gjsSZSI8kPEzDsQ2 steve@greenleaf-tdg.com unknown 14.20 140 189 4 53.84238088 -1.53374102 3.6100 2024-03-01T23:02:24.001Z 2024-03-01 23:02:25
799362 AgVPjwh4gNY8gjsSZSI8kPEzDsQ2 steve@greenleaf-tdg.com still 35.00 134 183 -1 53.83993355 -1.53311223 -1.0000 2024-03-01T19:38:21.524Z 2024-03-01 19:38:21
799361 AgVPjwh4gNY8gjsSZSI8kPEzDsQ2 steve@greenleaf-tdg.com on_foot 18.50 132 181 345 53.83992772 -1.53312446 0.0000 2024-03-01T19:33:10.731Z 2024-03-01 19:33:10
799360 AgVPjwh4gNY8gjsSZSI8kPEzDsQ2 steve@greenleaf-tdg.com in_vehicle 14.30 130 179 197 53.83993390 -1.53443708 4.5800 2024-03-01T19:30:07.050Z 2024-03-01 19:30:07
799359 AgVPjwh4gNY8gjsSZSI8kPEzDsQ2 steve@greenleaf-tdg.com in_vehicle 14.30 136 185 193 53.84106220 -1.53391797 9.8800 2024-03-01T19:29:52.000Z 2024-03-01 19:29:52
799358 AgVPjwh4gNY8gjsSZSI8kPEzDsQ2 steve@greenleaf-tdg.com in_vehicle 14.30 141 190 179 53.84289729 -1.53356749 0.0000 2024-03-01T19:29:28.000Z 2024-03-01 19:29:29
799357 AgVPjwh4gNY8gjsSZSI8kPEzDsQ2 steve@greenleaf-tdg.com in_vehicle 14.40 140 189 180 53.84286171 -1.53355288 2.9900 2024-03-01T19:28:46.000Z 2024-03-01 19:28:46
799356 AgVPjwh4gNY8gjsSZSI8kPEzDsQ2 steve@greenleaf-tdg.com on_foot 45.00 143 192 -1 53.84457160 -1.53406927 -1.0000 2024-03-01T19:26:49.607Z 2024-03-01 19:26:49
799355 AgVPjwh4gNY8gjsSZSI8kPEzDsQ2 steve@greenleaf-tdg.com on_foot 353.40 143 192 -1 53.84441766 -1.53437796 -1.0000 2024-03-01T19:24:42.990Z 2024-03-01 19:24:43
799354 AgVPjwh4gNY8gjsSZSI8kPEzDsQ2 steve@greenleaf-tdg.com on_foot 97.70 143 192 -1 53.84444389 -1.53412727 -1.0000 2024-03-01T19:23:21.637Z 2024-03-01 19:24:43
799353 AgVPjwh4gNY8gjsSZSI8kPEzDsQ2 steve@greenleaf-tdg.com in_vehicle 14.20 139 188 183 53.84684130 -1.53425699 6.2900 2024-03-01T19:19:02.000Z 2024-03-01 19:19:02
799352 AgVPjwh4gNY8gjsSZSI8kPEzDsQ2 steve@greenleaf-tdg.com in_vehicle 14.20 143 192 95 53.84845604 -1.53569794 0.0000 2024-03-01T19:17:47.000Z 2024-03-01 19:17:48
799351 AgVPjwh4gNY8gjsSZSI8kPEzDsQ2 steve@greenleaf-tdg.com in_vehicle 14.30 138 187 79 53.84846580 -1.54014866 16.5400 2024-03-01T19:16:47.000Z 2024-03-01 19:16:47
799350 AgVPjwh4gNY8gjsSZSI8kPEzDsQ2 steve@greenleaf-tdg.com in_vehicle 14.20 125 174 75 53.84570508 -1.54824599 10.6900 2024-03-01T19:16:12.000Z 2024-03-01 19:16:12
799349 AgVPjwh4gNY8gjsSZSI8kPEzDsQ2 steve@greenleaf-tdg.com in_vehicle 14.20 125 174 90 53.84568855 -1.54840523 9.8500 2024-03-01T19:16:11.052Z 2024-03-01 19:16:11
799348 AgVPjwh4gNY8gjsSZSI8kPEzDsQ2 steve@greenleaf-tdg.com in_vehicle 4.80 116 165 73 53.84284338 -1.55736633 12.8700 2024-03-01T19:15:09.000Z 2024-03-01 19:15:09
799347 AgVPjwh4gNY8gjsSZSI8kPEzDsQ2 steve@greenleaf-tdg.com in_vehicle 4.80 80 129 73 53.84271257 -1.57273052 21.6400 2024-03-01T19:13:57.000Z 2024-03-01 19:13:57
799346 AgVPjwh4gNY8gjsSZSI8kPEzDsQ2 steve@greenleaf-tdg.com in_vehicle 4.90 115 164 38 53.84106725 -1.58787078 20.0400 2024-03-01T19:12:42.000Z 2024-03-01 19:12:42
799345 AgVPjwh4gNY8gjsSZSI8kPEzDsQ2 steve@greenleaf-tdg.com in_vehicle 6.00 124 173 119 53.83779193 -1.59891798 14.0700 2024-03-01T19:11:36.000Z 2024-03-01 19:11:36
799344 AgVPjwh4gNY8gjsSZSI8kPEzDsQ2 steve@greenleaf-tdg.com in_vehicle 5.40 115 164 100 53.83854067 -1.60187482 0.0000 2024-03-01T19:11:12.000Z 2024-03-01 19:11:12
799343 AgVPjwh4gNY8gjsSZSI8kPEzDsQ2 steve@greenleaf-tdg.com in_vehicle 7.80 111 160 101 53.83871846 -1.60348220 13.4000 2024-03-01T19:10:35.000Z 2024-03-01 19:10:35
799342 AgVPjwh4gNY8gjsSZSI8kPEzDsQ2 steve@greenleaf-tdg.com in_vehicle 8.80 86 136 61 53.83774878 -1.61248643 9.7900 2024-03-01T19:09:52.000Z 2024-03-01 19:09:52
799341 AgVPjwh4gNY8gjsSZSI8kPEzDsQ2 steve@greenleaf-tdg.com in_vehicle 7.30 101 150 81 53.83622099 -1.62443758 15.4000 2024-03-01T19:08:41.000Z 2024-03-01 19:08:41
799340 AgVPjwh4gNY8gjsSZSI8kPEzDsQ2 steve@greenleaf-tdg.com in_vehicle 9.40 108 157 88 53.83522464 -1.63664679 12.5800 2024-03-01T19:07:40.000Z 2024-03-01 19:07:40
799339 TXKVtJNfO3QzdV1r1nAtAECnE9g2 paddy@greenleaf-tdg.com still 9.80 27 77 -1 53.47627898 -2.35467286 -1.0000 2024-03-01T19:07:05.784Z 2024-03-01 19:07:09
799338 AgVPjwh4gNY8gjsSZSI8kPEzDsQ2 steve@greenleaf-tdg.com in_vehicle 7.50 108 158 113 53.83440634 -1.64567415 11.6400 2024-03-01T19:06:51.000Z 2024-03-01 19:06:51
799337 AgVPjwh4gNY8gjsSZSI8kPEzDsQ2 steve@greenleaf-tdg.com still 5.20 97 146 29 53.83460121 -1.65188814 5.0200 2024-03-01T19:06:11.000Z 2024-03-01 19:06:11
799336 AgVPjwh4gNY8gjsSZSI8kPEzDsQ2 steve@greenleaf-tdg.com in_vehicle 5.10 97 146 32 53.83456117 -1.65191999 4.6300 2024-03-01T19:06:10.031Z 2024-03-01 19:06:10
799335 AgVPjwh4gNY8gjsSZSI8kPEzDsQ2 steve@greenleaf-tdg.com in_vehicle 4.80 63 113 42 53.82978836 -1.65912288 17.2700 2024-03-01T19:04:55.000Z 2024-03-01 19:04:55
799334 AgVPjwh4gNY8gjsSZSI8kPEzDsQ2 steve@greenleaf-tdg.com in_vehicle 5.10 62 112 311 53.82250195 -1.65838202 12.7000 2024-03-01T19:02:21.000Z 2024-03-01 19:02:21
799333 TXKVtJNfO3QzdV1r1nAtAECnE9g2 paddy@greenleaf-tdg.com on_foot 9.80 27 77 -1 53.47627898 -2.35467286 -1.0000 2024-03-01T19:01:31.590Z 2024-03-01 19:01:31
799332 TXKVtJNfO3QzdV1r1nAtAECnE9g2 paddy@greenleaf-tdg.com on_foot 2000.00 27 77 -1 53.47341728 -2.35951725 -1.0000 2024-03-01T19:01:29.856Z 2024-03-01 19:01:31
799331 TXKVtJNfO3QzdV1r1nAtAECnE9g2 paddy@greenleaf-tdg.com on_foot 6000.00 27 77 -1 53.47669799 -2.34778764 -1.0000 2024-03-01T19:01:27.017Z 2024-03-01 19:01:30
799330 AgVPjwh4gNY8gjsSZSI8kPEzDsQ2 steve@greenleaf-tdg.com in_vehicle 7.90 65 114 304 53.81889847 -1.65154281 11.2400 2024-03-01T19:01:30.000Z 2024-03-01 19:01:30
799329 AgVPjwh4gNY8gjsSZSI8kPEzDsQ2 steve@greenleaf-tdg.com in_vehicle 9.10 72 122 288 53.81778790 -1.64860997 4.3500 2024-03-01T19:01:09.050Z 2024-03-01 19:01:09
799328 TXKVtJNfO3QzdV1r1nAtAECnE9g2 paddy@greenleaf-tdg.com on_foot 9.80 27 77 -1 53.47627898 -2.35467286 -1.0000 2024-03-01T19:00:41.473Z 2024-03-01 19:00:42
799327 TXKVtJNfO3QzdV1r1nAtAECnE9g2 paddy@greenleaf-tdg.com on_foot 9.80 27 77 -1 53.47627898 -2.35467286 -1.0000 2024-03-01T19:00:37.767Z 2024-03-01 19:00:41
799326 AgVPjwh4gNY8gjsSZSI8kPEzDsQ2 steve@greenleaf-tdg.com in_vehicle 10.30 93 142 316 53.81613398 -1.64740564 8.0800 2024-03-01T19:00:16.000Z 2024-03-01 19:00:16
799325 TXKVtJNfO3QzdV1r1nAtAECnE9g2 paddy@greenleaf-tdg.com on_foot 9.10 26 76 -1 53.47621700 -2.35461838 0.0000 2024-03-01T19:00:07.985Z 2024-03-01 19:00:08
799324 TXKVtJNfO3QzdV1r1nAtAECnE9g2 paddy@greenleaf-tdg.com on_foot 9.10 26 76 -1 53.47621700 -2.35461838 0.0000 2024-03-01T18:59:57.985Z 2024-03-01 19:00:08
799323 TXKVtJNfO3QzdV1r1nAtAECnE9g2 paddy@greenleaf-tdg.com on_foot 10.10 26 76 -1 53.47624526 -2.35450097 0.0000 2024-03-01T18:59:40.122Z 2024-03-01 18:59:40
799322 TXKVtJNfO3QzdV1r1nAtAECnE9g2 paddy@greenleaf-tdg.com on_foot 10.10 26 76 -1 53.47624526 -2.35450097 0.0000 2024-03-01T18:59:38.986Z 2024-03-01 18:59:40
799321 TXKVtJNfO3QzdV1r1nAtAECnE9g2 paddy@greenleaf-tdg.com in_vehicle 5.50 22 72 239 53.47632372 -2.35235903 10.9100 2024-03-01T18:54:25.986Z 2024-03-01 18:54:26
799320 TXKVtJNfO3QzdV1r1nAtAECnE9g2 paddy@greenleaf-tdg.com in_vehicle 6.00 25 75 234 53.47731327 -2.34978267 0.0700 2024-03-01T18:54:05.987Z 2024-03-01 18:54:06
799319 TXKVtJNfO3QzdV1r1nAtAECnE9g2 paddy@greenleaf-tdg.com in_vehicle 6.00 24 75 234 53.47731124 -2.34978009 0.0200 2024-03-01T18:54:05.147Z 2024-03-01 18:54:05
799318 TXKVtJNfO3QzdV1r1nAtAECnE9g2 paddy@greenleaf-tdg.com in_vehicle 5.10 30 81 233 53.47978183 -2.34407260 9.1900 2024-03-01T18:53:10.988Z 2024-03-01 18:53:11
799317 TXKVtJNfO3QzdV1r1nAtAECnE9g2 paddy@greenleaf-tdg.com in_vehicle 10.40 28 78 273 53.48196948 -2.33255181 13.4600 2024-03-01T18:51:46.988Z 2024-03-01 18:51:47
799316 TXKVtJNfO3QzdV1r1nAtAECnE9g2 paddy@greenleaf-tdg.com in_vehicle 14.30 32 83 279 53.48512774 -2.32261820 25.5100 2024-03-01T18:49:04.153Z 2024-03-01 18:49:04
799315 TXKVtJNfO3QzdV1r1nAtAECnE9g2 paddy@greenleaf-tdg.com in_vehicle 27.50 30 80 282 53.48425230 -2.31475806 24.1000 2024-03-01T18:48:40.990Z 2024-03-01 18:48:41
799314 TXKVtJNfO3QzdV1r1nAtAECnE9g2 paddy@greenleaf-tdg.com in_vehicle 20.70 32 83 281 53.48198605 -2.29676433 24.1700 2024-03-01T18:47:50.990Z 2024-03-01 18:47:51
799313 TXKVtJNfO3QzdV1r1nAtAECnE9g2 paddy@greenleaf-tdg.com in_vehicle 6.80 36 87 282 53.48101147 -2.28922813 25.3800 2024-03-01T18:47:30.991Z 2024-03-01 18:47:31
799312 AgVPjwh4gNY8gjsSZSI8kPEzDsQ2 steve@greenleaf-tdg.com still 30.00 107 157 -1 53.81494367 -1.64391457 -1.0000 2024-03-01T18:45:40.131Z 2024-03-01 18:45:41
799311 TXKVtJNfO3QzdV1r1nAtAECnE9g2 paddy@greenleaf-tdg.com unknown 6.40 41 92 210 53.48274020 -2.27718117 19.4000 2024-03-01T18:45:12.991Z 2024-03-01 18:45:13
799310 TXKVtJNfO3QzdV1r1nAtAECnE9g2 paddy@greenleaf-tdg.com unknown 14.40 41 91 294 53.48402724 -2.27146701 6.0100 2024-03-01T18:44:03.992Z 2024-03-01 18:44:04
799309 TXKVtJNfO3QzdV1r1nAtAECnE9g2 paddy@greenleaf-tdg.com unknown 14.40 41 91 294 53.48400328 -2.27138282 6.6500 2024-03-01T18:44:03.147Z 2024-03-01 18:44:03
799308 TXKVtJNfO3QzdV1r1nAtAECnE9g2 paddy@greenleaf-tdg.com unknown 5.00 38 88 268 53.48319808 -2.26390165 10.1600 2024-03-01T18:42:40.993Z 2024-03-01 18:42:41
799307 TXKVtJNfO3QzdV1r1nAtAECnE9g2 paddy@greenleaf-tdg.com unknown 10.90 32 82 267 53.48326958 -2.25776666 6.4400 2024-03-01T18:41:43.992Z 2024-03-01 18:41:44
799306 TXKVtJNfO3QzdV1r1nAtAECnE9g2 paddy@greenleaf-tdg.com unknown 8.80 34 85 226 53.48626752 -2.25442037 3.0700 2024-03-01T18:40:14.993Z 2024-03-01 18:40:15
799305 TXKVtJNfO3QzdV1r1nAtAECnE9g2 paddy@greenleaf-tdg.com unknown 14.70 33 83 261 53.48810430 -2.24960615 11.7300 2024-03-01T18:39:02.155Z 2024-03-01 18:39:02
799304 TXKVtJNfO3QzdV1r1nAtAECnE9g2 paddy@greenleaf-tdg.com unknown 14.50 30 81 256 53.48832643 -2.24605936 11.8500 2024-03-01T18:38:42.993Z 2024-03-01 18:38:43
799303 TXKVtJNfO3QzdV1r1nAtAECnE9g2 paddy@greenleaf-tdg.com unknown 14.40 40 90 324 53.48786941 -2.24006984 2.8300 2024-03-01T18:37:15.993Z 2024-03-01 18:37:16
799302 AgVPjwh4gNY8gjsSZSI8kPEzDsQ2 steve@greenleaf-tdg.com in_vehicle 4.90 113 163 44 53.81384655 -1.64506363 13.7000 2024-03-01T18:35:26.000Z 2024-03-01 18:35:26
799301 AgVPjwh4gNY8gjsSZSI8kPEzDsQ2 steve@greenleaf-tdg.com in_vehicle 4.90 115 165 44 53.81314583 -1.64619337 13.2200 2024-03-01T18:35:18.000Z 2024-03-01 18:35:18
799300 AgVPjwh4gNY8gjsSZSI8kPEzDsQ2 steve@greenleaf-tdg.com unknown 5.00 116 165 42 53.81287561 -1.64661397 11.4900 2024-03-01T18:35:15.000Z 2024-03-01 18:35:15
799299 TXKVtJNfO3QzdV1r1nAtAECnE9g2 paddy@greenleaf-tdg.com unknown 14.30 34 85 159 53.48617202 -2.24194377 4.2700 2024-03-01T18:34:24.994Z 2024-03-01 18:34:25
799298 TXKVtJNfO3QzdV1r1nAtAECnE9g2 paddy@greenleaf-tdg.com unknown 14.30 35 85 156 53.48724166 -2.24212365 0.2500 2024-03-01T18:32:29.147Z 2024-03-01 18:32:29
799297 TXKVtJNfO3QzdV1r1nAtAECnE9g2 paddy@greenleaf-tdg.com unknown 116.00 -2 48 63 53.48780354 -2.24062795 0.5900 2024-03-01T18:31:10.996Z 2024-03-01 18:31:11
799296 TXKVtJNfO3QzdV1r1nAtAECnE9g2 paddy@greenleaf-tdg.com unknown 2000.00 24 74 -1 53.48850136 -2.24484490 -1.0000 2024-03-01T18:30:07.493Z 2024-03-01 18:30:08
799295 TXKVtJNfO3QzdV1r1nAtAECnE9g2 paddy@greenleaf-tdg.com unknown 34.00 34 84 102 53.48199443 -2.29890496 30.8100 2024-03-01T18:24:28.998Z 2024-03-01 18:30:07
799294 TXKVtJNfO3QzdV1r1nAtAECnE9g2 paddy@greenleaf-tdg.com unknown 2000.00 22 73 -1 53.48834394 -2.24415061 -1.0000 2024-03-01T18:29:33.882Z 2024-03-01 18:29:34
799293 TXKVtJNfO3QzdV1r1nAtAECnE9g2 paddy@greenleaf-tdg.com unknown 2000.00 24 75 -1 53.48657108 -2.24292433 -1.0000 2024-03-01T18:29:17.158Z 2024-03-01 18:29:18
799292 TXKVtJNfO3QzdV1r1nAtAECnE9g2 paddy@greenleaf-tdg.com unknown 2000.00 24 75 -1 53.48529855 -2.24609641 -1.0000 2024-03-01T18:29:13.628Z 2024-03-01 18:29:13
799291 TXKVtJNfO3QzdV1r1nAtAECnE9g2 paddy@greenleaf-tdg.com unknown 2000.00 24 75 -1 53.48754525 -2.24516078 -1.0000 2024-03-01T18:28:53.833Z 2024-03-01 18:28:54
799290 TXKVtJNfO3QzdV1r1nAtAECnE9g2 paddy@greenleaf-tdg.com unknown 2000.00 24 75 -1 53.48783546 -2.24834431 -1.0000 2024-03-01T18:28:52.763Z 2024-03-01 18:28:52
799289 TXKVtJNfO3QzdV1r1nAtAECnE9g2 paddy@greenleaf-tdg.com unknown 2000.00 24 75 -1 53.48640822 -2.24590491 -1.0000 2024-03-01T18:28:49.268Z 2024-03-01 18:28:49
799288 TXKVtJNfO3QzdV1r1nAtAECnE9g2 paddy@greenleaf-tdg.com unknown 2000.00 24 75 -1 53.48653805 -2.24265737 -1.0000 2024-03-01T18:28:45.091Z 2024-03-01 18:28:45
799287 TXKVtJNfO3QzdV1r1nAtAECnE9g2 paddy@greenleaf-tdg.com unknown 2000.00 24 75 -1 53.48502069 -2.24589333 -1.0000 2024-03-01T18:28:42.580Z 2024-03-01 18:28:42
799286 TXKVtJNfO3QzdV1r1nAtAECnE9g2 paddy@greenleaf-tdg.com unknown 2000.00 21 72 -1 53.47767275 -2.26228282 -1.0000 2024-03-01T18:26:57.309Z 2024-03-01 18:26:57
799285 TXKVtJNfO3QzdV1r1nAtAECnE9g2 paddy@greenleaf-tdg.com unknown 2000.00 21 72 -1 53.48009371 -2.26373469 -1.0000 2024-03-01T18:26:49.667Z 2024-03-01 18:26:49
799284 TXKVtJNfO3QzdV1r1nAtAECnE9g2 paddy@greenleaf-tdg.com unknown 2000.00 21 72 -1 53.48075603 -2.26024851 -1.0000 2024-03-01T18:26:48.903Z 2024-03-01 18:26:49
799283 TXKVtJNfO3QzdV1r1nAtAECnE9g2 paddy@greenleaf-tdg.com unknown 2000.00 21 72 -1 53.47836333 -2.26013344 -1.0000 2024-03-01T18:26:48.024Z 2024-03-01 18:26:48
799282 TXKVtJNfO3QzdV1r1nAtAECnE9g2 paddy@greenleaf-tdg.com unknown 2000.00 21 72 -1 53.47810916 -2.26527790 -1.0000 2024-03-01T18:26:27.446Z 2024-03-01 18:26:27
799281 TXKVtJNfO3QzdV1r1nAtAECnE9g2 paddy@greenleaf-tdg.com unknown 34.00 34 84 102 53.48199443 -2.29890496 30.8100 2024-03-01T18:24:28.998Z 2024-03-01 18:26:27
799280 TXKVtJNfO3QzdV1r1nAtAECnE9g2 paddy@greenleaf-tdg.com unknown 2000.00 21 72 -1 53.48094201 -2.27469859 -1.0000 2024-03-01T18:25:54.451Z 2024-03-01 18:25:54
799279 TXKVtJNfO3QzdV1r1nAtAECnE9g2 paddy@greenleaf-tdg.com unknown 51.90 34 85 102 53.48237978 -2.30204250 30.7000 2024-03-01T18:24:21.998Z 2024-03-01 18:24:22
799278 TXKVtJNfO3QzdV1r1nAtAECnE9g2 paddy@greenleaf-tdg.com unknown 74.10 2 53 89 53.48573722 -2.32574330 33.1100 2024-03-01T18:23:30.998Z 2024-03-01 18:23:31
799277 TXKVtJNfO3QzdV1r1nAtAECnE9g2 paddy@greenleaf-tdg.com unknown 1463.30 20 72 -1 53.48648922 -2.33181350 -1.0000 2024-03-01T18:23:23.075Z 2024-03-01 18:23:23
799276 TXKVtJNfO3QzdV1r1nAtAECnE9g2 paddy@greenleaf-tdg.com unknown 1414.00 20 72 -1 53.48620911 -2.33834304 -1.0000 2024-03-01T18:23:09.496Z 2024-03-01 18:23:09
799275 TXKVtJNfO3QzdV1r1nAtAECnE9g2 paddy@greenleaf-tdg.com unknown 1457.40 20 71 -1 53.48620009 -2.34925830 -1.0000 2024-03-01T18:22:38.537Z 2024-03-01 18:22:38
799274 TXKVtJNfO3QzdV1r1nAtAECnE9g2 paddy@greenleaf-tdg.com unknown 1453.30 20 71 -1 53.48471169 -2.35141743 -1.0000 2024-03-01T18:22:35.637Z 2024-03-01 18:22:37
799273 TXKVtJNfO3QzdV1r1nAtAECnE9g2 paddy@greenleaf-tdg.com unknown 1453.00 20 71 -1 53.48621421 -2.35576459 -1.0000 2024-03-01T18:22:34.856Z 2024-03-01 18:22:35
799272 TXKVtJNfO3QzdV1r1nAtAECnE9g2 paddy@greenleaf-tdg.com unknown 1448.60 20 71 -1 53.48402949 -2.36394819 -1.0000 2024-03-01T18:22:31.869Z 2024-03-01 18:22:32
799271 TXKVtJNfO3QzdV1r1nAtAECnE9g2 paddy@greenleaf-tdg.com unknown 1440.80 20 71 -1 53.48440862 -2.36893811 -1.0000 2024-03-01T18:22:27.897Z 2024-03-01 18:22:32
799270 TXKVtJNfO3QzdV1r1nAtAECnE9g2 paddy@greenleaf-tdg.com unknown 1414.00 18 69 -1 53.48611779 -2.37008122 -1.0000 2024-03-01T18:22:25.456Z 2024-03-01 18:22:25
799269 TXKVtJNfO3QzdV1r1nAtAECnE9g2 paddy@greenleaf-tdg.com unknown 1414.60 18 69 -1 53.48181525 -2.36968851 -1.0000 2024-03-01T18:21:59.786Z 2024-03-01 18:22:00
799268 TXKVtJNfO3QzdV1r1nAtAECnE9g2 paddy@greenleaf-tdg.com unknown 1414.00 18 69 -1 53.48302542 -2.37317761 -1.0000 2024-03-01T18:21:58.657Z 2024-03-01 18:21:59
799267 TXKVtJNfO3QzdV1r1nAtAECnE9g2 paddy@greenleaf-tdg.com unknown 1414.00 18 69 -1 53.48445653 -2.37767207 -1.0000 2024-03-01T18:21:56.894Z 2024-03-01 18:21:59
799266 TXKVtJNfO3QzdV1r1nAtAECnE9g2 paddy@greenleaf-tdg.com unknown 1414.00 18 69 -1 53.47896021 -2.38009395 -1.0000 2024-03-01T18:21:55.008Z 2024-03-01 18:21:59
799265 TXKVtJNfO3QzdV1r1nAtAECnE9g2 paddy@greenleaf-tdg.com unknown 1414.00 18 69 -1 53.47988382 -2.38504374 -1.0000 2024-03-01T18:21:53.539Z 2024-03-01 18:21:59
799264 TXKVtJNfO3QzdV1r1nAtAECnE9g2 paddy@greenleaf-tdg.com unknown 1414.00 18 69 -1 53.48696918 -2.37223653 -1.0000 2024-03-01T18:21:52.476Z 2024-03-01 18:21:58
799263 TXKVtJNfO3QzdV1r1nAtAECnE9g2 paddy@greenleaf-tdg.com unknown 89.30 25 76 -1 53.40801544 -2.97783836 -1.0000 2024-03-01T17:52:10.471Z 2024-03-01 18:21:55
799262 TXKVtJNfO3QzdV1r1nAtAECnE9g2 paddy@greenleaf-tdg.com unknown 1414.00 18 69 -1 53.49049124 -2.38044136 -1.0000 2024-03-01T18:21:34.518Z 2024-03-01 18:21:41
799261 TXKVtJNfO3QzdV1r1nAtAECnE9g2 paddy@greenleaf-tdg.com unknown 1414.00 18 69 -1 53.48438416 -2.38717591 -1.0000 2024-03-01T18:21:32.165Z 2024-03-01 18:21:40
799260 TXKVtJNfO3QzdV1r1nAtAECnE9g2 paddy@greenleaf-tdg.com unknown 1414.00 18 69 -1 53.47537123 -2.39709986 -1.0000 2024-03-01T18:21:23.359Z 2024-03-01 18:21:39
799259 TXKVtJNfO3QzdV1r1nAtAECnE9g2 paddy@greenleaf-tdg.com unknown 2008.10 18 69 -1 53.48105479 -2.39573612 -1.0000 2024-03-01T18:21:08.499Z 2024-03-01 18:21:38
799258 TXKVtJNfO3QzdV1r1nAtAECnE9g2 paddy@greenleaf-tdg.com unknown 89.30 25 76 -1 53.40801544 -2.97783836 -1.0000 2024-03-01T17:52:10.471Z 2024-03-01 18:21:38
799257 TXKVtJNfO3QzdV1r1nAtAECnE9g2 paddy@greenleaf-tdg.com unknown 1975.90 18 69 -1 53.47634524 -2.39691194 -1.0000 2024-03-01T18:20:56.326Z 2024-03-01 18:20:57
799256 TXKVtJNfO3QzdV1r1nAtAECnE9g2 paddy@greenleaf-tdg.com unknown 1970.60 18 69 -1 53.47667549 -2.40019559 -1.0000 2024-03-01T18:20:52.587Z 2024-03-01 18:20:56
799255 TXKVtJNfO3QzdV1r1nAtAECnE9g2 paddy@greenleaf-tdg.com unknown 1969.80 18 69 -1 53.47940813 -2.39690855 -1.0000 2024-03-01T18:20:51.111Z 2024-03-01 18:20:56
799254 TXKVtJNfO3QzdV1r1nAtAECnE9g2 paddy@greenleaf-tdg.com unknown 1966.70 18 69 -1 53.48747497 -2.38703189 -1.0000 2024-03-01T18:20:48.268Z 2024-03-01 18:20:49
799253 TXKVtJNfO3QzdV1r1nAtAECnE9g2 paddy@greenleaf-tdg.com unknown 1966.50 18 69 -1 53.48956310 -2.37811698 -1.0000 2024-03-01T18:20:47.465Z 2024-03-01 18:20:48
799252 TXKVtJNfO3QzdV1r1nAtAECnE9g2 paddy@greenleaf-tdg.com unknown 1963.70 18 69 -1 53.48550917 -2.38311773 -1.0000 2024-03-01T18:20:43.712Z 2024-03-01 18:20:45
799251 TXKVtJNfO3QzdV1r1nAtAECnE9g2 paddy@greenleaf-tdg.com unknown 1951.40 17 69 -1 53.47518183 -2.39669651 -1.0000 2024-03-01T18:20:37.999Z 2024-03-01 18:20:38
799250 TXKVtJNfO3QzdV1r1nAtAECnE9g2 paddy@greenleaf-tdg.com unknown 1946.90 17 69 -1 53.46985016 -2.40060611 -1.0000 2024-03-01T18:20:34.549Z 2024-03-01 18:20:34
799249 TXKVtJNfO3QzdV1r1nAtAECnE9g2 paddy@greenleaf-tdg.com unknown 1945.80 17 69 -1 53.47078311 -2.39982555 -1.0000 2024-03-01T18:20:32.883Z 2024-03-01 18:20:33
799248 TXKVtJNfO3QzdV1r1nAtAECnE9g2 paddy@greenleaf-tdg.com unknown 1909.50 17 69 -1 53.47537034 -2.39894429 -1.0000 2024-03-01T18:20:23.051Z 2024-03-01 18:20:29
799247 TXKVtJNfO3QzdV1r1nAtAECnE9g2 paddy@greenleaf-tdg.com unknown 1900.80 17 69 -1 53.47291697 -2.40778257 -1.0000 2024-03-01T18:20:18.305Z 2024-03-01 18:20:28
799246 TXKVtJNfO3QzdV1r1nAtAECnE9g2 paddy@greenleaf-tdg.com unknown 1891.60 15 67 -1 53.46919234 -2.41285245 -1.0000 2024-03-01T18:20:13.484Z 2024-03-01 18:20:27
799245 TXKVtJNfO3QzdV1r1nAtAECnE9g2 paddy@greenleaf-tdg.com unknown 89.30 25 76 -1 53.40801544 -2.97783836 -1.0000 2024-03-01T17:52:10.471Z 2024-03-01 18:20:26
799244 TXKVtJNfO3QzdV1r1nAtAECnE9g2 paddy@greenleaf-tdg.com unknown 1747.90 15 67 -1 53.49093840 -2.44825642 -1.0000 2024-03-01T18:19:29.504Z 2024-03-01 18:20:14
799243 TXKVtJNfO3QzdV1r1nAtAECnE9g2 paddy@greenleaf-tdg.com unknown 89.30 25 76 -1 53.40801544 -2.97783836 -1.0000 2024-03-01T17:52:10.471Z 2024-03-01 18:19:45
799242 TXKVtJNfO3QzdV1r1nAtAECnE9g2 paddy@greenleaf-tdg.com unknown 1682.10 15 67 -1 53.46909451 -2.46674223 -1.0000 2024-03-01T18:19:07.502Z 2024-03-01 18:19:12
799241 TXKVtJNfO3QzdV1r1nAtAECnE9g2 paddy@greenleaf-tdg.com unknown 89.30 25 76 -1 53.40801544 -2.97783836 -1.0000 2024-03-01T17:52:10.471Z 2024-03-01 18:19:10
799240 TXKVtJNfO3QzdV1r1nAtAECnE9g2 paddy@greenleaf-tdg.com unknown 1520.10 15 67 -1 53.47136595 -2.47459052 -1.0000 2024-03-01T18:18:34.455Z 2024-03-01 18:18:35
799239 TXKVtJNfO3QzdV1r1nAtAECnE9g2 paddy@greenleaf-tdg.com unknown 89.30 25 76 -1 53.40801544 -2.97783836 -1.0000 2024-03-01T17:52:10.471Z 2024-03-01 18:18:34
799238 TXKVtJNfO3QzdV1r1nAtAECnE9g2 paddy@greenleaf-tdg.com unknown 1445.40 15 67 -1 53.47257723 -2.49274974 -1.0000 2024-03-01T18:18:09.618Z 2024-03-01 18:18:09
799237 TXKVtJNfO3QzdV1r1nAtAECnE9g2 paddy@greenleaf-tdg.com unknown 1445.30 15 67 -1 53.46521978 -2.49577164 -1.0000 2024-03-01T18:18:09.319Z 2024-03-01 18:18:09
799236 TXKVtJNfO3QzdV1r1nAtAECnE9g2 paddy@greenleaf-tdg.com unknown 1414.00 15 67 -1 53.46240291 -2.49665828 -1.0000 2024-03-01T18:18:01.455Z 2024-03-01 18:18:01
799235 TXKVtJNfO3QzdV1r1nAtAECnE9g2 paddy@greenleaf-tdg.com unknown 1429.20 16 68 -1 53.46266357 -2.49575898 -1.0000 2024-03-01T18:17:24.094Z 2024-03-01 18:17:25
799234 TXKVtJNfO3QzdV1r1nAtAECnE9g2 paddy@greenleaf-tdg.com unknown 1428.60 19 70 -1 53.46385790 -2.50202867 -1.0000 2024-03-01T18:17:16.288Z 2024-03-01 18:17:24
799233 TXKVtJNfO3QzdV1r1nAtAECnE9g2 paddy@greenleaf-tdg.com unknown 1428.10 19 70 -1 53.46442695 -2.50547627 -1.0000 2024-03-01T18:17:15.355Z 2024-03-01 18:17:24
799232 TXKVtJNfO3QzdV1r1nAtAECnE9g2 paddy@greenleaf-tdg.com unknown 1425.60 19 70 -1 53.47081324 -2.51386679 -1.0000 2024-03-01T18:17:13.153Z 2024-03-01 18:17:24
799231 TXKVtJNfO3QzdV1r1nAtAECnE9g2 paddy@greenleaf-tdg.com unknown 1414.00 19 70 -1 53.47536287 -2.52397259 -1.0000 2024-03-01T18:17:06.500Z 2024-03-01 18:17:14
799230 TXKVtJNfO3QzdV1r1nAtAECnE9g2 paddy@greenleaf-tdg.com unknown 89.30 25 76 -1 53.40801544 -2.97783836 -1.0000 2024-03-01T17:52:10.471Z 2024-03-01 18:17:10
799229 TXKVtJNfO3QzdV1r1nAtAECnE9g2 paddy@greenleaf-tdg.com unknown 14631.00 21 72 -1 53.46654214 -2.54175632 -1.0000 2024-03-01T18:16:11.507Z 2024-03-01 18:16:18
799228 TXKVtJNfO3QzdV1r1nAtAECnE9g2 paddy@greenleaf-tdg.com unknown 89.30 25 76 -1 53.40801544 -2.97783836 -1.0000 2024-03-01T17:52:10.471Z 2024-03-01 18:16:13
799227 TXKVtJNfO3QzdV1r1nAtAECnE9g2 paddy@greenleaf-tdg.com unknown 23586.00 23 74 -1 53.45354262 -2.60954129 -1.0000 2024-03-01T18:15:16.510Z 2024-03-01 18:15:16
799226 TXKVtJNfO3QzdV1r1nAtAECnE9g2 paddy@greenleaf-tdg.com unknown 89.30 25 76 -1 53.40801544 -2.97783836 -1.0000 2024-03-01T17:52:10.471Z 2024-03-01 18:15:16
799225 TXKVtJNfO3QzdV1r1nAtAECnE9g2 paddy@greenleaf-tdg.com unknown 1414.00 26 77 -1 53.45434095 -2.62320620 -1.0000 2024-03-01T18:13:12.805Z 2024-03-01 18:13:13
799224 TXKVtJNfO3QzdV1r1nAtAECnE9g2 paddy@greenleaf-tdg.com unknown 1414.00 26 77 -1 53.45503515 -2.62609196 -1.0000 2024-03-01T18:13:04.458Z 2024-03-01 18:13:05
799223 TXKVtJNfO3QzdV1r1nAtAECnE9g2 paddy@greenleaf-tdg.com unknown 89.30 25 76 -1 53.40801544 -2.97783836 -1.0000 2024-03-01T17:52:10.471Z 2024-03-01 18:13:04
799222 TXKVtJNfO3QzdV1r1nAtAECnE9g2 paddy@greenleaf-tdg.com unknown 1414.00 29 81 -1 53.45274560 -2.62725406 -1.0000 2024-03-01T18:12:50.362Z 2024-03-01 18:12:50
799221 TXKVtJNfO3QzdV1r1nAtAECnE9g2 paddy@greenleaf-tdg.com unknown 1414.50 29 81 -1 53.45020991 -2.62872195 -1.0000 2024-03-01T18:12:42.456Z 2024-03-01 18:12:42
799220 TXKVtJNfO3QzdV1r1nAtAECnE9g2 paddy@greenleaf-tdg.com unknown 1428.30 26 78 -1 53.44744628 -2.66259443 -1.0000 2024-03-01T18:12:00.276Z 2024-03-01 18:12:03
799219 TXKVtJNfO3QzdV1r1nAtAECnE9g2 paddy@greenleaf-tdg.com unknown 1417.10 26 78 -1 53.45926176 -2.67844598 -1.0000 2024-03-01T18:11:55.564Z 2024-03-01 18:11:55
799218 TXKVtJNfO3QzdV1r1nAtAECnE9g2 paddy@greenleaf-tdg.com unknown 1414.00 26 78 -1 53.45806012 -2.67219437 -1.0000 2024-03-01T18:11:52.108Z 2024-03-01 18:11:52
799217 TXKVtJNfO3QzdV1r1nAtAECnE9g2 paddy@greenleaf-tdg.com unknown 1675.70 28 79 -1 53.44428217 -2.67065957 -1.0000 2024-03-01T18:11:36.505Z 2024-03-01 18:11:37
799216 TXKVtJNfO3QzdV1r1nAtAECnE9g2 paddy@greenleaf-tdg.com unknown 89.30 25 76 -1 53.40801544 -2.97783836 -1.0000 2024-03-01T17:52:10.471Z 2024-03-01 18:11:36
799215 TXKVtJNfO3QzdV1r1nAtAECnE9g2 paddy@greenleaf-tdg.com unknown 2192.80 48 100 -1 53.42573519 -2.73362738 -1.0000 2024-03-01T18:09:02.463Z 2024-03-01 18:09:02
799214 TXKVtJNfO3QzdV1r1nAtAECnE9g2 paddy@greenleaf-tdg.com unknown 2000.00 55 106 -1 53.42490489 -2.73469891 -1.0000 2024-03-01T18:06:21.008Z 2024-03-01 18:06:21
799213 TXKVtJNfO3QzdV1r1nAtAECnE9g2 paddy@greenleaf-tdg.com unknown 2005.40 55 106 -1 53.42289216 -2.73519643 -1.0000 2024-03-01T18:06:13.482Z 2024-03-01 18:06:13
799212 TXKVtJNfO3QzdV1r1nAtAECnE9g2 paddy@greenleaf-tdg.com unknown 2000.00 57 109 -1 53.42473499 -2.73528763 -1.0000 2024-03-01T18:06:09.682Z 2024-03-01 18:06:10
799211 TXKVtJNfO3QzdV1r1nAtAECnE9g2 paddy@greenleaf-tdg.com unknown 2000.00 57 109 -1 53.42310612 -2.73716141 -1.0000 2024-03-01T18:06:09.547Z 2024-03-01 18:06:09
799210 TXKVtJNfO3QzdV1r1nAtAECnE9g2 paddy@greenleaf-tdg.com unknown 2126.60 57 109 -1 53.42092689 -2.74147248 -1.0000 2024-03-01T18:06:06.490Z 2024-03-01 18:06:07
799209 TXKVtJNfO3QzdV1r1nAtAECnE9g2 paddy@greenleaf-tdg.com unknown 89.30 25 76 -1 53.40801544 -2.97783836 -1.0000 2024-03-01T17:52:10.471Z 2024-03-01 18:06:06
799208 TXKVtJNfO3QzdV1r1nAtAECnE9g2 paddy@greenleaf-tdg.com unknown 2058.60 57 109 -1 53.42091807 -2.76314798 -1.0000 2024-03-01T18:05:33.467Z 2024-03-01 18:05:33
799207 TXKVtJNfO3QzdV1r1nAtAECnE9g2 paddy@greenleaf-tdg.com unknown 1768.00 37 88 -1 53.40859476 -2.87564783 -1.0000 2024-03-01T18:01:34.434Z 2024-03-01 18:01:34
799206 TXKVtJNfO3QzdV1r1nAtAECnE9g2 paddy@greenleaf-tdg.com unknown 89.30 25 76 -1 53.40801544 -2.97783836 -1.0000 2024-03-01T17:52:10.471Z 2024-03-01 18:01:31
799205 TXKVtJNfO3QzdV1r1nAtAECnE9g2 paddy@greenleaf-tdg.com unknown 1517.80 39 90 -1 53.40561256 -2.88463393 -1.0000 2024-03-01T18:00:25.506Z 2024-03-01 18:00:25
799204 TXKVtJNfO3QzdV1r1nAtAECnE9g2 paddy@greenleaf-tdg.com unknown 89.30 25 76 -1 53.40801544 -2.97783836 -1.0000 2024-03-01T17:52:10.471Z 2024-03-01 18:00:25
799203 TXKVtJNfO3QzdV1r1nAtAECnE9g2 paddy@greenleaf-tdg.com unknown 1434.40 41 93 -1 53.40559546 -2.90923997 -1.0000 2024-03-01T17:59:06.126Z 2024-03-01 17:59:06
799202 TXKVtJNfO3QzdV1r1nAtAECnE9g2 paddy@greenleaf-tdg.com unknown 1433.00 41 93 -1 53.40655157 -2.91248534 -1.0000 2024-03-01T17:59:04.451Z 2024-03-01 17:59:04
799201 TXKVtJNfO3QzdV1r1nAtAECnE9g2 paddy@greenleaf-tdg.com unknown 1414.00 41 93 -1 53.40553526 -2.91571962 -1.0000 2024-03-01T17:58:58.198Z 2024-03-01 17:58:58
799200 TXKVtJNfO3QzdV1r1nAtAECnE9g2 paddy@greenleaf-tdg.com unknown 1414.00 41 93 -1 53.40580898 -2.91443729 -1.0000 2024-03-01T17:58:56.990Z 2024-03-01 17:58:58
799199 TXKVtJNfO3QzdV1r1nAtAECnE9g2 paddy@greenleaf-tdg.com unknown 1414.00 41 93 -1 53.40501087 -2.92423462 -1.0000 2024-03-01T17:58:48.993Z 2024-03-01 17:58:49
799198 TXKVtJNfO3QzdV1r1nAtAECnE9g2 paddy@greenleaf-tdg.com unknown 1467.10 41 93 -1 53.40507302 -2.92962627 -1.0000 2024-03-01T17:58:39.509Z 2024-03-01 17:58:39
799197 TXKVtJNfO3QzdV1r1nAtAECnE9g2 paddy@greenleaf-tdg.com unknown 1435.80 41 93 -1 53.40689648 -2.93761514 -1.0000 2024-03-01T17:58:31.313Z 2024-03-01 17:58:32
799196 TXKVtJNfO3QzdV1r1nAtAECnE9g2 paddy@greenleaf-tdg.com unknown 1414.00 41 93 -1 53.40788066 -2.94110496 -1.0000 2024-03-01T17:58:24.471Z 2024-03-01 17:58:25
799195 TXKVtJNfO3QzdV1r1nAtAECnE9g2 paddy@greenleaf-tdg.com unknown 89.30 25 76 -1 53.40801544 -2.97783836 -1.0000 2024-03-01T17:52:10.471Z 2024-03-01 17:58:24
799194 TXKVtJNfO3QzdV1r1nAtAECnE9g2 paddy@greenleaf-tdg.com unknown 1414.00 41 93 -1 53.40601583 -2.94482627 -1.0000 2024-03-01T17:57:43.850Z 2024-03-01 17:57:44
799193 TXKVtJNfO3QzdV1r1nAtAECnE9g2 paddy@greenleaf-tdg.com unknown 1446.10 38 90 -1 53.40313921 -2.95082001 -1.0000 2024-03-01T17:57:20.525Z 2024-03-01 17:57:20
799192 TXKVtJNfO3QzdV1r1nAtAECnE9g2 paddy@greenleaf-tdg.com unknown 1414.00 36 87 -1 53.40328645 -2.95604534 -1.0000 2024-03-01T17:57:02.880Z 2024-03-01 17:57:03
799191 TXKVtJNfO3QzdV1r1nAtAECnE9g2 paddy@greenleaf-tdg.com unknown 1414.00 34 85 -1 53.40389987 -2.95956230 -1.0000 2024-03-01T17:56:56.467Z 2024-03-01 17:56:56
799190 TXKVtJNfO3QzdV1r1nAtAECnE9g2 paddy@greenleaf-tdg.com unknown 89.30 25 76 -1 53.40801544 -2.97783836 -1.0000 2024-03-01T17:52:10.471Z 2024-03-01 17:56:56
799189 TXKVtJNfO3QzdV1r1nAtAECnE9g2 paddy@greenleaf-tdg.com unknown 1229.10 28 80 -1 53.40638688 -2.97468023 -1.0000 2024-03-01T17:56:01.526Z 2024-03-01 17:56:45